Time,TemperatureF,DewpointF,PressureIn,WindDirection,WindDirectionDegrees,WindSpeedMPH,WindSpeedGustMPH,Humidity,HourlyPrecipIn,Conditions,Clouds,dailyrainin,SoftwareType,DateUTC
2013-01-10 00:00:00,52.8,21.4,30.44,NNW,329,10.4,10.4,29,0.00,CLR,,0.00,WeatherDisplay:10.37,2013-01-10 05:00:00,
2013-01-10 00:01:00,52.6,21.2,30.44,North,0,5.8,5.8,29,0.00,CLR,,0.00,WeatherDisplay:10.37,2013-01-10 05:01:00,
2013-01-10 00:05:00,52.1,19.9,30.44,West,274,4.6,4.6,28,0.00,CLR,,0.00,WeatherDisplay:10.37,2013-01-10 05:05:00,
2013-01-10 00:06:00,52.1,19.9,30.44,West,274,0.0,0.0,28,0.00,CLR,,0.00,WeatherDisplay:10.37,2013-01-10 05:06:00,
2013-01-10 00:08:00,52.8,20.5,30.44,West,274,0.0,0.0,28,0.00,CLR,,0.00,WeatherDisplay:10.37,2013-01-10 05:08:00,
2013-01-10 00:12:00,52.1,19.1,30.44,West,274,0.0,0.0,27,0.00,CLR,,0.00,WeatherDisplay:10.37,2013-01-10 05:12:00,
2013-01-10 00:13:00,52.0,18.1,30.44,West,274,0.0,0.0,26,0.00,CLR,,0.00,WeatherDisplay:10.37,2013-01-10 05:13:00,
2013-01-10 00:17:00,51.9,22.9,30.44,West,261,5.8,5.8,32,0.00,CLR,,0.00,WeatherDisplay:10.37,2013-01-10 05:17:00,
2013-01-10 00:18:00,51.7,19.6,30.44,SW,216,5.8,5.8,28,0.00,CLR,,0.00,WeatherDisplay:10.37,2013-01-10 05:18:00,
2013-01-10 00:19:00,51.7,21.2,30.44,SSW,199,2.0,7.0,30,0.00,CLR,,0.00,WeatherDisplay:10.37,2013-01-10 05:19:00,
2013-01-10 00:20:00,51.4,21.0,30.44,SSW,206,4.3,4.3,30,0.00,CLR,,0.00,WeatherDisplay:10.37,2013-01-10 05:20:00,
2013-01-10 00:23:00,51.6,21.1,30.44,South,179,4.8,4.8,30,0.00,CLR,,0.00,WeatherDisplay:10.37,2013-01-10 05:23:00,
2013-01-10 00:25:00,51.6,21.9,30.44,South,175,3.5,0.0,31,0.00,CLR,,0.00,WeatherDisplay:10.37,2013-01-10 05:25:00,
2013-01-10 00:26:00,51.1,22.2,30.44,South,175,3.5,0.0,32,0.00,CLR,,0.00,WeatherDisplay:10.37,2013-01-10 05:26:00,
2013-01-10 00:29:00,51.1,19.1,30.44,South,175,0.0,0.0,28,0.00,CLR,,0.00,WeatherDisplay:10.37,2013-01-10 05:29:00,
2013-01-10 00:32:00,51.1,18.2,30.44,South,175,0.0,0.0,27,0.00,CLR,,0.00,WeatherDisplay:10.37,2013-01-10 05:32:00,
2013-01-10 00:33:00,50.8,18.8,30.44,South,175,0.0,0.0,28,0.00,CLR,,0.00,WeatherDisplay:10.37,2013-01-10 05:33:00,
2013-01-10 00:34:00,51.0,19.0,30.44,South,175,0.0,0.0,28,0.00,CLR,,0.00,WeatherDisplay:10.37,2013-01-10 05:34:00,
2013-01-10 00:38:00,50.6,18.6,30.44,South,175,3.5,0.0,28,0.00,CLR,,0.00,WeatherDisplay:10.37,2013-01-10 05:38:00,
2013-01-10 00:39:00,50.6,18.7,30.44,South,175,0.0,3.0,28,0.00,CLR,,0.00,WeatherDisplay:10.37,2013-01-10 05:39:00,
2013-01-10 00:41:00,50.6,18.6,30.44,South,175,0.0,0.0,28,0.00,CLR,,0.00,WeatherDisplay:10.37,2013-01-10 05:41:00,
2013-01-10 00:46:00,50.1,18.2,30.44,South,175,0.0,0.0,28,0.00,CLR,,0.00,WeatherDisplay:10.37,2013-01-10 05:46:00,
2013-01-10 00:47:00,50.1,18.2,30.44,South,175,0.0,0.0,28,0.00,CLR,,0.00,WeatherDisplay:10.37,2013-01-10 05:47:00,
2013-01-10 00:48:00,50.1,18.2,30.44,South,175,0.0,0.0,28,0.00,CLR,,0.00,WeatherDisplay:10.37,2013-01-10 05:48:00,
2013-01-10 00:49:00,50.1,18.2,30.44,South,175,0.0,0.0,28,0.00,CLR,,0.00,WeatherDisplay:10.37,2013-01-10 05:49:00,
2013-01-10 00:51:00,50.1,18.2,30.44,South,175,0.0,0.0,28,0.00,CLR,,0.00,WeatherDisplay:10.37,2013-01-10 05:51:00,
2013-01-10 00:54:00,50.0,14.6,30.44,South,175,0.0,0.0,24,0.00,CLR,,0.00,WeatherDisplay:10.37,2013-01-10 05:54:00,
2013-01-10 00:55:00,50.1,14.7,30.44,WNW,282,0.0,1.8,24,0.00,CLR,,0.00,WeatherDisplay:10.37,2013-01-10 05:55:00,
2013-01-10 00:59:00,50.2,10.6,30.44,West,263,6.9,6.9,20,0.00,CLR,,0.00,WeatherDisplay:10.37,2013-01-10 05:59:00,
2013-01-10 01:00:00,50.2,10.6,30.44,West,272,8.1,8.1,20,0.00,CLR,,0.00,WeatherDisplay:10.37,2013-01-10 06:00:00,
2013-01-10 01:04:00,50.3,12.8,30.44,West,274,0.0,0.0,22,0.00,CLR,,0.00,WeatherDisplay:10.37,2013-01-10 06:04:00,
2013-01-10 01:05:00,50.3,12.8,30.44,West,274,0.0,0.0,22,0.00,CLR,,0.00,WeatherDisplay:10.37,2013-01-10 06:05:00,
2013-01-10 01:06:00,50.2,11.7,30.45,West,274,0.0,0.0,21,0.00,CLR,,0.00,WeatherDisplay:10.37,2013-01-10 06:06:00,
2013-01-10 01:11:00,50.0,12.6,30.45,NW,320,0.0,0.0,22,0.00,CLR,,0.00,WeatherDisplay:10.37,2013-01-10 06:11:00,
2013-01-10 01:13:00,49.7,12.3,30.45,NW,320,0.0,0.0,22,0.00,CLR,,0.00,WeatherDisplay:10.37,2013-01-10 06:13:00,
2013-01-10 01:15:00,49.9,11.4,30.45,NW,320,0.0,0.0,21,0.00,CLR,,0.00,WeatherDisplay:10.37,2013-01-10 06:15:00,
2013-01-10 01:19:00,49.7,10.2,30.45,NW,320,0.0,0.0,20,0.00,CLR,,0.00,WeatherDisplay:10.37,2013-01-10 06:19:00,
2013-01-10 01:20:00,49.8,9.1,30.45,NW,320,0.0,0.0,19,0.00,CLR,,0.00,WeatherDisplay:10.37,2013-01-10 06:20:00,
2013-01-10 01:22:00,49.8,9.1,30.44,NW,320,0.0,0.0,19,0.00,CLR,,0.00,WeatherDisplay:10.37,2013-01-10 06:22:00,
2013-01-10 01:24:00,50.0,9.3,30.44,NW,320,0.0,0.0,19,0.00,CLR,,0.00,WeatherDisplay:10.37,2013-01-10 06:24:00,
2013-01-10 01:25:00,50.0,9.3,30.44,NW,320,0.0,0.0,19,0.00,CLR,,0.00,WeatherDisplay:10.37,2013-01-10 06:25:00,
2013-01-10 01:26:00,50.0,8.1,30.44,NW,320,0.0,0.0,18,0.00,CLR,,0.00,WeatherDisplay:10.37,2013-01-10 06:26:00,
2013-01-10 01:28:00,50.1,8.2,30.44,NW,325,5.8,5.8,18,0.00,CLR,,0.00,WeatherDisplay:10.37,2013-01-10 06:28:00,
2013-01-10 01:31:00,50.2,8.2,30.44,NNW,330,6.9,6.9,18,0.00,CLR,,0.00,WeatherDisplay:10.37,2013-01-10 06:31:00,
2013-01-10 01:32:00,50.2,8.2,30.44,NNW,333,3.5,0.0,18,0.00,CLR,,0.00,WeatherDisplay:10.37,2013-01-10 06:32:00,
2013-01-10 01:34:00,50.1,8.2,30.44,NNW,346,8.1,8.1,18,0.00,CLR,,0.00,WeatherDisplay:10.37,2013-01-10 06:34:00,
2013-01-10 01:38:00,50.2,8.2,30.44,NNW,335,0.0,0.0,18,0.00,CLR,,0.00,WeatherDisplay:10.37,2013-01-10 06:38:00,
2013-01-10 01:39:00,50.0,6.8,30.44,NW,311,4.6,4.6,17,0.00,CLR,,0.00,WeatherDisplay:10.37,2013-01-10 06:39:00,
2013-01-10 01:40:00,50.2,5.6,30.44,NNW,329,8.1,8.1,16,0.00,CLR,,0.00,WeatherDisplay:10.37,2013-01-10 06:40:00,
2013-01-10 01:42:00,50.2,7.0,30.44,NW,304,8.1,0.0,17,0.00,CLR,,0.00,WeatherDisplay:10.37,2013-01-10 06:42:00,
2013-01-10 01:43:00,50.1,6.9,30.45,NW,304,0.0,0.0,17,0.00,CLR,,0.00,WeatherDisplay:10.37,2013-01-10 06:43:00,
2013-01-10 01:45:00,50.3,7.1,30.45,NNW,328,5.8,5.8,17,0.00,CLR,,0.00,WeatherDisplay:10.37,2013-01-10 06:45:00,
2013-01-10 01:47:00,50.4,5.8,30.45,NNW,342,9.4,9.4,16,0.00,CLR,,0.00,WeatherDisplay:10.37,2013-01-10 06:47:00,
2013-01-10 01:48:00,50.3,7.1,30.45,North,1,11.5,11.5,17,0.00,CLR,,0.00,WeatherDisplay:10.37,2013-01-10 06:48:00,
2013-01-10 01:51:00,50.2,8.2,30.44,North,11,5.8,5.8,18,0.00,CLR,,0.00,WeatherDisplay:10.37,2013-01-10 06:51:00,
2013-01-10 01:52:00,50.1,8.2,30.45,NW,311,5.8,5.8,18,0.00,CLR,,0.00,WeatherDisplay:10.37,2013-01-10 06:52:00,
2013-01-10 01:55:00,50.0,6.8,30.45,NW,309,9.2,9.2,17,0.00,CLR,,0.00,WeatherDisplay:10.37,2013-01-10 06:55:00,
2013-01-10 01:56:00,50.0,6.8,30.45,NW,308,10.4,10.4,17,0.00,CLR,,0.00,WeatherDisplay:10.37,2013-01-10 06:56:00,
2013-01-10 01:58:00,50.1,6.9,30.45,NNW,336,8.1,8.1,17,0.00,CLR,,0.00,WeatherDisplay:10.37,2013-01-10 06:58:00,
2013-01-10 01:59:00,50.0,6.8,30.45,NNW,340,5.0,10.0,17,0.00,CLR,,0.00,WeatherDisplay:10.37,2013-01-10 06:59:00,
2013-01-10 02:00:00,50.0,6.8,30.45,North,353,5.8,5.8,17,0.00,CLR,,0.00,WeatherDisplay:10.37,2013-01-10 07:00:00,
2013-01-10 02:01:00,50.1,6.9,30.45,NNW,346,5.8,5.8,17,0.00,CLR,,0.00,WeatherDisplay:10.37,2013-01-10 07:01:00,
2013-01-10 02:03:00,50.1,6.9,30.45,NW,323,0.0,0.0,17,0.00,CLR,,0.00,WeatherDisplay:10.37,2013-01-10 07:03:00,
2013-01-10 02:04:00,50.2,7.0,30.45,NW,323,0.0,0.0,17,0.00,CLR,,0.00,WeatherDisplay:10.37,2013-01-10 07:04:00,
2013-01-10 02:06:00,50.1,6.9,30.45,NW,323,0.0,0.0,17,0.00,CLR,,0.00,WeatherDisplay:10.37,2013-01-10 07:06:00,
2013-01-10 02:07:00,50.1,8.2,30.45,NW,323,0.0,0.0,18,0.00,CLR,,0.00,WeatherDisplay:10.37,2013-01-10 07:07:00,
2013-01-10 02:09:00,49.9,6.7,30.45,North,1,2.3,2.3,17,0.00,CLR,,0.00,WeatherDisplay:10.37,2013-01-10 07:09:00,
2013-01-10 02:11:00,49.9,6.7,30.45,North,1,0.0,0.0,17,0.00,CLR,,0.00,WeatherDisplay:10.37,2013-01-10 07:11:00,
2013-01-10 02:12:00,49.8,6.7,30.46,North,1,0.0,0.0,17,0.00,CLR,,0.00,WeatherDisplay:10.37,2013-01-10 07:12:00,
2013-01-10 02:14:00,49.7,7.8,30.46,North,1,0.0,0.0,18,0.00,CLR,,0.00,WeatherDisplay:10.37,2013-01-10 07:14:00,
2013-01-10 02:16:00,49.5,7.7,30.46,North,1,0.0,0.0,18,0.00,CLR,,0.00,WeatherDisplay:10.37,2013-01-10 07:16:00,
2013-01-10 02:17:00,49.5,7.7,30.46,North,1,0.0,0.0,18,0.00,CLR,,0.00,WeatherDisplay:10.37,2013-01-10 07:17:00,
2013-01-10 02:19:00,49.6,7.8,30.46,North,1,0.0,0.0,18,0.00,CLR,,0.00,WeatherDisplay:10.37,2013-01-10 07:19:00,
2013-01-10 02:21:00,49.2,7.4,30.46,North,1,0.0,0.0,18,0.00,CLR,,0.00,WeatherDisplay:10.37,2013-01-10 07:21:00,
2013-01-10 02:24:00,48.5,8.0,30.46,North,1,0.0,0.0,19,0.00,CLR,,0.00,WeatherDisplay:10.37,2013-01-10 07:24:00,
2013-01-10 02:25:00,48.5,8.0,30.46,North,1,0.0,0.0,19,0.00,CLR,,0.00,WeatherDisplay:10.37,2013-01-10 07:25:00,
2013-01-10 02:27:00,48.4,8.0,30.46,North,1,0.0,0.0,19,0.00,CLR,,0.00,WeatherDisplay:10.37,2013-01-10 07:27:00,
2013-01-10 02:31:00,48.4,9.1,30.46,North,1,0.0,0.0,20,0.00,CLR,,0.00,WeatherDisplay:10.37,2013-01-10 07:31:00,
2013-01-10 02:32:00,48.4,9.1,30.46,North,1,0.0,0.0,20,0.00,CLR,,0.00,WeatherDisplay:10.37,2013-01-10 07:32:00,
2013-01-10 02:33:00,48.2,8.9,30.46,North,1,0.0,0.0,20,0.00,CLR,,0.00,WeatherDisplay:10.37,2013-01-10 07:33:00,
2013-01-10 02:37:00,48.1,9.9,30.46,North,1,0.0,0.0,21,0.00,CLR,,0.00,WeatherDisplay:10.37,2013-01-10 07:37:00,
2013-01-10 02:38:00,48.1,8.8,30.46,North,1,0.0,0.0,20,0.00,CLR,,0.00,WeatherDisplay:10.37,2013-01-10 07:38:00,
2013-01-10 02:42:00,48.1,8.8,30.45,North,1,0.0,0.0,20,0.00,CLR,,0.00,WeatherDisplay:10.37,2013-01-10 07:42:00,
2013-01-10 02:44:00,48.3,9.0,30.45,North,1,0.0,0.0,20,0.00,CLR,,0.00,WeatherDisplay:10.37,2013-01-10 07:44:00,
2013-01-10 02:47:00,48.2,8.9,30.45,North,1,0.0,0.0,20,0.00,CLR,,0.00,WeatherDisplay:10.37,2013-01-10 07:47:00,
2013-01-10 02:49:00,48.0,8.8,30.45,North,1,0.0,0.0,20,0.00,CLR,,0.00,WeatherDisplay:10.37,2013-01-10 07:49:00,
2013-01-10 02:51:00,48.3,7.9,30.46,North,1,0.0,0.0,19,0.00,CLR,,0.00,WeatherDisplay:10.37,2013-01-10 07:51:00,
2013-01-10 02:52:00,48.4,8.0,30.46,North,1,0.0,0.0,19,0.00,CLR,,0.00,WeatherDisplay:10.37,2013-01-10 07:52:00,
2013-01-10 02:54:00,48.4,6.8,30.46,North,1,0.0,0.0,18,0.00,CLR,,0.00,WeatherDisplay:10.37,2013-01-10 07:54:00,
2013-01-10 02:56:00,48.4,8.0,30.46,North,1,0.0,0.0,19,0.00,CLR,,0.00,WeatherDisplay:10.37,2013-01-10 07:56:00,
2013-01-10 02:58:00,48.4,8.0,30.46,North,1,0.0,0.0,19,0.00,CLR,,0.00,WeatherDisplay:10.37,2013-01-10 07:58:00,
2013-01-10 02:59:00,48.4,8.0,30.46,North,1,0.0,0.0,19,0.00,CLR,,0.00,WeatherDisplay:10.37,2013-01-10 07:59:00,
2013-01-10 03:01:00,48.3,9.0,30.46,North,1,0.0,0.0,20,0.00,CLR,,0.00,WeatherDisplay:10.37,2013-01-10 08:01:00,
2013-01-10 03:04:00,48.2,8.9,30.46,North,1,0.0,0.0,20,0.00,CLR,,0.00,WeatherDisplay:10.37,2013-01-10 08:04:00,
2013-01-10 03:07:00,48.0,8.8,30.47,North,1,0.0,0.0,20,0.00,CLR,,0.00,WeatherDisplay:10.37,2013-01-10 08:07:00,
2013-01-10 03:08:00,48.3,9.0,30.47,North,1,0.0,0.0,20,0.00,CLR,,0.00,WeatherDisplay:10.37,2013-01-10 08:08:00,
2013-01-10 03:09:00,48.2,8.9,30.47,North,1,0.0,0.0,20,0.00,CLR,,0.00,WeatherDisplay:10.37,2013-01-10 08:09:00,
2013-01-10 03:10:00,48.0,9.9,30.47,North,1,0.0,0.0,21,0.00,CLR,,0.00,WeatherDisplay:10.37,2013-01-10 08:10:00,
2013-01-10 03:14:00,47.7,9.6,30.47,North,1,0.0,0.0,21,0.00,CLR,,0.00,WeatherDisplay:10.37,2013-01-10 08:14:00,
2013-01-10 03:15:00,47.5,10.5,30.47,North,1,0.0,0.0,22,0.00,CLR,,0.00,WeatherDisplay:10.37,2013-01-10 08:15:00,
2013-01-10 03:19:00,47.4,10.4,30.47,North,1,0.0,0.0,22,0.00,CLR,,0.00,WeatherDisplay:10.37,2013-01-10 08:19:00,
2013-01-10 03:20:00,47.3,10.3,30.47,North,1,0.0,0.0,22,0.00,CLR,,0.00,WeatherDisplay:10.37,2013-01-10 08:20:00,
2013-01-10 03:22:00,47.2,10.2,30.47,North,1,0.0,0.0,22,0.00,CLR,,0.00,WeatherDisplay:10.37,2013-01-10 08:22:00,
2013-01-10 03:23:00,47.2,10.2,30.47,North,1,0.0,0.0,22,0.00,CLR,,0.00,WeatherDisplay:10.37,2013-01-10 08:23:00,
2013-01-10 03:25:00,46.9,10.0,30.47,North,1,0.0,0.0,22,0.00,CLR,,0.00,WeatherDisplay:10.37,2013-01-10 08:25:00,
2013-01-10 03:28:00,46.8,9.9,30.46,North,1,0.0,0.0,22,0.00,CLR,,0.00,WeatherDisplay:10.37,2013-01-10 08:28:00,
2013-01-10 03:32:00,47.5,7.2,30.46,North,1,0.0,0.0,19,0.00,CLR,,0.00,WeatherDisplay:10.37,2013-01-10 08:32:00,
2013-01-10 03:34:00,47.6,7.3,30.46,North,1,0.0,0.0,19,0.00,CLR,,0.00,WeatherDisplay:10.37,2013-01-10 08:34:00,
2013-01-10 03:35:00,47.7,8.5,30.46,North,1,0.0,0.0,20,0.00,CLR,,0.00,WeatherDisplay:10.37,2013-01-10 08:35:00,
2013-01-10 03:36:00,47.9,8.7,30.46,North,1,0.0,0.0,20,0.00,CLR,,0.00,WeatherDisplay:10.37,2013-01-10 08:36:00,
2013-01-10 03:39:00,47.7,8.5,30.46,North,1,0.0,0.0,20,0.00,CLR,,0.00,WeatherDisplay:10.37,2013-01-10 08:39:00,
2013-01-10 03:41:00,47.7,8.5,30.46,North,1,0.0,0.0,20,0.00,CLR,,0.00,WeatherDisplay:10.37,2013-01-10 08:41:00,
2013-01-10 03:42:00,47.5,9.4,30.46,North,1,0.0,0.0,21,0.00,CLR,,0.00,WeatherDisplay:10.37,2013-01-10 08:42:00,
2013-01-10 03:44:00,47.5,10.5,30.47,North,1,0.0,0.0,22,0.00,CLR,,0.00,WeatherDisplay:10.37,2013-01-10 08:44:00,
2013-01-10 03:46:00,47.3,9.3,30.46,North,1,0.0,0.0,21,0.00,CLR,,0.00,WeatherDisplay:10.37,2013-01-10 08:46:00,
2013-01-10 03:47:00,47.3,9.3,30.46,North,1,0.0,0.0,21,0.00,CLR,,0.00,WeatherDisplay:10.37,2013-01-10 08:47:00,
2013-01-10 03:48:00,47.3,10.3,30.46,North,1,0.0,0.0,22,0.00,CLR,,0.00,WeatherDisplay:10.37,2013-01-10 08:48:00,
2013-01-10 03:51:00,47.2,10.2,30.46,North,1,0.0,0.0,22,0.00,CLR,,0.00,WeatherDisplay:10.37,2013-01-10 08:51:00,
2013-01-10 03:52:00,47.1,10.1,30.46,North,1,0.0,0.0,22,0.00,CLR,,0.00,WeatherDisplay:10.37,2013-01-10 08:52:00,
2013-01-10 03:53:00,47.1,10.1,30.46,North,1,0.0,0.0,22,0.00,CLR,,0.00,WeatherDisplay:10.37,2013-01-10 08:53:00,
2013-01-10 03:57:00,47.3,9.3,30.47,North,1,0.0,0.0,21,0.00,CLR,,0.00,WeatherDisplay:10.37,2013-01-10 08:57:00,
2013-01-10 03:58:00,47.3,10.3,30.47,North,1,0.0,0.0,22,0.00,CLR,,0.00,WeatherDisplay:10.37,2013-01-10 08:58:00,
2013-01-10 03:59:00,47.4,10.4,30.47,North,1,0.0,0.0,22,0.00,CLR,,0.00,WeatherDisplay:10.37,2013-01-10 08:59:00,
2013-01-10 04:03:00,47.6,9.5,30.47,North,1,0.0,0.0,21,0.00,CLR,,0.00,WeatherDisplay:10.37,2013-01-10 09:03:00,
2013-01-10 04:04:00,47.6,9.5,30.47,North,1,0.0,0.0,21,0.00,CLR,,0.00,WeatherDisplay:10.37,2013-01-10 09:04:00,
2013-01-10 04:05:00,47.5,9.4,30.47,North,1,0.0,0.0,21,0.00,CLR,,0.00,WeatherDisplay:10.37,2013-01-10 09:05:00,
2013-01-10 04:09:00,47.7,9.6,30.47,North,1,0.0,0.0,21,0.00,CLR,,0.00,WeatherDisplay:10.37,2013-01-10 09:09:00,
2013-01-10 04:10:00,47.8,9.7,30.47,North,1,0.0,0.0,21,0.00,CLR,,0.00,WeatherDisplay:10.37,2013-01-10 09:10:00,
2013-01-10 04:13:00,47.7,9.6,30.47,NNE,27,5.8,5.8,21,0.00,CLR,,0.00,WeatherDisplay:10.37,2013-01-10 09:13:00,
2013-01-10 04:14:00,47.7,9.6,30.47,NNE,27,2.3,0.0,21,0.00,CLR,,0.00,WeatherDisplay:10.37,2013-01-10 09:14:00,
2013-01-10 04:15:00,47.7,9.6,30.47,North,11,5.8,5.8,21,0.00,CLR,,0.00,WeatherDisplay:10.37,2013-01-10 09:15:00,
2013-01-10 04:17:00,47.8,9.7,30.47,NNE,20,5.8,5.8,21,0.00,CLR,,0.00,WeatherDisplay:10.37,2013-01-10 09:17:00,
2013-01-10 04:19:00,47.7,9.6,30.48,North,8,5.8,5.8,21,0.00,CLR,,0.00,WeatherDisplay:10.37,2013-01-10 09:19:00,
2013-01-10 04:20:00,47.8,9.7,30.48,North,8,0.0,0.0,21,0.00,CLR,,0.00,WeatherDisplay:10.37,2013-01-10 09:20:00,
2013-01-10 04:21:00,47.9,8.7,30.48,North,8,0.0,0.0,20,0.00,CLR,,0.00,WeatherDisplay:10.37,2013-01-10 09:21:00,
2013-01-10 04:22:00,48.0,9.9,30.48,North,8,0.0,0.0,21,0.00,CLR,,0.00,WeatherDisplay:10.37,2013-01-10 09:22:00,
2013-01-10 04:24:00,48.0,9.8,30.48,NNE,12,0.0,0.0,21,0.00,CLR,,0.00,WeatherDisplay:10.37,2013-01-10 09:24:00,
2013-01-10 04:25:00,47.9,10.8,30.48,North,8,0.0,0.0,22,0.00,CLR,,0.00,WeatherDisplay:10.37,2013-01-10 09:25:00,
2013-01-10 04:27:00,47.5,10.5,30.48,North,8,0.0,0.0,22,0.00,CLR,,0.00,WeatherDisplay:10.37,2013-01-10 09:27:00,
2013-01-10 04:28:00,47.6,10.6,30.48,North,8,0.0,0.0,22,0.00,CLR,,0.00,WeatherDisplay:10.37,2013-01-10 09:28:00,
2013-01-10 04:30:00,47.4,10.4,30.48,North,8,0.0,0.0,22,0.00,CLR,,0.00,WeatherDisplay:10.37,2013-01-10 09:30:00,
2013-01-10 04:31:00,47.4,10.4,30.48,North,8,0.0,0.0,22,0.00,CLR,,0.00,WeatherDisplay:10.37,2013-01-10 09:31:00,
2013-01-10 04:33:00,47.1,10.1,30.48,North,8,0.0,0.0,22,0.00,CLR,,0.00,WeatherDisplay:10.37,2013-01-10 09:33:00,
2013-01-10 04:37:00,46.6,11.7,30.48,North,8,0.0,0.0,24,0.00,CLR,,0.00,WeatherDisplay:10.37,2013-01-10 09:37:00,
2013-01-10 04:38:00,46.3,11.4,30.48,North,8,0.0,0.0,24,0.00,CLR,,0.00,WeatherDisplay:10.37,2013-01-10 09:38:00,
2013-01-10 04:39:00,46.3,11.5,30.48,North,8,0.0,0.0,24,0.00,CLR,,0.00,WeatherDisplay:10.37,2013-01-10 09:39:00,
2013-01-10 04:40:00,46.2,12.3,30.48,North,8,0.0,0.0,25,0.00,CLR,,0.00,WeatherDisplay:10.37,2013-01-10 09:40:00,
2013-01-10 04:44:00,46.0,12.1,30.48,North,8,0.0,0.0,25,0.00,CLR,,0.00,WeatherDisplay:10.37,2013-01-10 09:44:00,
2013-01-10 04:47:00,45.9,12.9,30.48,North,8,0.0,0.0,26,0.00,CLR,,0.00,WeatherDisplay:10.37,2013-01-10 09:47:00,
2013-01-10 04:48:00,45.8,12.8,30.48,North,8,0.0,0.0,26,0.00,CLR,,0.00,WeatherDisplay:10.37,2013-01-10 09:48:00,
2013-01-10 04:50:00,45.9,12.9,30.48,North,8,0.0,0.0,26,0.00,CLR,,0.00,WeatherDisplay:10.37,2013-01-10 09:50:00,
2013-01-10 04:52:00,45.9,12.9,30.48,North,8,0.0,0.0,26,0.00,CLR,,0.00,WeatherDisplay:10.37,2013-01-10 09:52:00,
2013-01-10 04:53:00,45.9,14.6,30.48,North,8,0.0,0.0,28,0.00,CLR,,0.00,WeatherDisplay:10.37,2013-01-10 09:53:00,
2013-01-10 04:55:00,46.0,13.0,30.47,North,8,0.0,0.0,26,0.00,CLR,,0.00,WeatherDisplay:10.37,2013-01-10 09:55:00,
2013-01-10 04:58:00,45.8,13.7,30.47,North,8,0.0,0.0,27,0.00,CLR,,0.00,WeatherDisplay:10.37,2013-01-10 09:58:00,
2013-01-10 04:59:00,45.7,13.6,30.47,North,8,0.0,0.0,27,0.00,CLR,,0.00,WeatherDisplay:10.37,2013-01-10 09:59:00,
2013-01-10 05:02:00,45.4,14.1,30.47,North,8,0.0,0.0,28,0.00,CLR,,0.00,WeatherDisplay:10.37,2013-01-10 10:02:00,
2013-01-10 05:04:00,45.5,14.3,30.47,North,8,0.0,0.0,28,0.00,CLR,,0.00,WeatherDisplay:10.37,2013-01-10 10:04:00,
2013-01-10 05:05:00,45.5,14.2,30.48,North,8,0.0,0.0,28,0.00,CLR,,0.00,WeatherDisplay:10.37,2013-01-10 10:05:00,
2013-01-10 05:07:00,45.7,14.4,30.47,North,8,0.0,0.0,28,0.00,CLR,,0.00,WeatherDisplay:10.37,2013-01-10 10:07:00,
2013-01-10 05:08:00,45.8,13.7,30.47,North,8,0.0,0.0,27,0.00,CLR,,0.00,WeatherDisplay:10.37,2013-01-10 10:08:00,
2013-01-10 05:10:00,45.9,13.7,30.47,North,8,0.0,0.0,27,0.00,CLR,,0.00,WeatherDisplay:10.37,2013-01-10 10:10:00,
2013-01-10 05:11:00,45.9,12.9,30.47,North,8,0.0,0.0,26,0.00,CLR,,0.00,WeatherDisplay:10.37,2013-01-10 10:11:00,
2013-01-10 05:13:00,46.1,13.1,30.47,North,8,0.0,0.0,26,0.00,CLR,,0.00,WeatherDisplay:10.37,2013-01-10 10:13:00,
2013-01-10 05:15:00,46.0,13.0,30.47,North,8,0.0,0.0,26,0.00,CLR,,0.00,WeatherDisplay:10.37,2013-01-10 10:15:00,
2013-01-10 05:16:00,46.0,13.0,30.47,North,8,0.0,0.0,26,0.00,CLR,,0.00,WeatherDisplay:10.37,2013-01-10 10:16:00,
2013-01-10 05:17:00,46.0,13.0,30.47,North,8,0.0,0.0,26,0.00,CLR,,0.00,WeatherDisplay:10.37,2013-01-10 10:17:00,
2013-01-10 05:21:00,46.2,13.1,30.47,WNW,296,5.8,5.8,26,0.00,CLR,,0.00,WeatherDisplay:10.37,2013-01-10 10:21:00,
2013-01-10 05:22:00,46.2,13.1,30.47,WNW,296,5.8,0.0,26,0.00,CLR,,0.00,WeatherDisplay:10.37,2013-01-10 10:22:00,
2013-01-10 05:23:00,46.2,14.0,30.48,WNW,296,0.0,0.0,27,0.00,CLR,,0.00,WeatherDisplay:10.37,2013-01-10 10:23:00,
2013-01-10 05:24:00,46.1,13.9,30.48,WNW,296,0.0,0.0,27,0.00,CLR,,0.00,WeatherDisplay:10.37,2013-01-10 10:24:00,
2013-01-10 05:26:00,46.0,13.8,30.48,WNW,296,0.0,0.0,27,0.00,CLR,,0.00,WeatherDisplay:10.37,2013-01-10 10:26:00,
2013-01-10 05:27:00,46.0,13.8,30.48,WNW,296,0.0,0.0,27,0.00,CLR,,0.00,WeatherDisplay:10.37,2013-01-10 10:27:00,
2013-01-10 05:29:00,45.8,13.7,30.48,WNW,296,0.0,0.0,27,0.00,CLR,,0.00,WeatherDisplay:10.37,2013-01-10 10:29:00,
2013-01-10 05:30:00,45.7,13.6,30.48,WNW,296,0.0,0.0,27,0.00,CLR,,0.00,WeatherDisplay:10.37,2013-01-10 10:30:00,
2013-01-10 05:33:00,45.2,14.0,30.48,WNW,296,0.0,0.0,28,0.00,CLR,,0.00,WeatherDisplay:10.37,2013-01-10 10:33:00,
2013-01-10 05:34:00,45.1,13.9,30.48,WNW,296,0.0,0.0,28,0.00,CLR,,0.00,WeatherDisplay:10.37,2013-01-10 10:34:00,
2013-01-10 05:37:00,44.4,14.9,30.48,WNW,296,0.0,0.0,30,0.00,CLR,,0.00,WeatherDisplay:10.37,2013-01-10 10:37:00,
2013-01-10 05:39:00,44.2,15.4,30.48,WNW,296,0.0,0.0,31,0.00,CLR,,0.00,WeatherDisplay:10.37,2013-01-10 10:39:00,
2013-01-10 05:41:00,43.8,14.3,30.49,WNW,296,0.0,0.0,30,0.00,CLR,,0.00,WeatherDisplay:10.37,2013-01-10 10:41:00,
2013-01-10 05:42:00,43.6,14.9,30.49,WNW,296,0.0,0.0,31,0.00,CLR,,0.00,WeatherDisplay:10.37,2013-01-10 10:42:00,
2013-01-10 05:44:00,43.0,15.8,30.49,WNW,296,0.0,0.0,33,0.00,CLR,,0.00,WeatherDisplay:10.37,2013-01-10 10:44:00,
2013-01-10 05:45:00,42.2,16.5,30.49,WNW,296,0.0,0.0,35,0.00,CLR,,0.00,WeatherDisplay:10.37,2013-01-10 10:45:00,
2013-01-10 05:47:00,41.9,16.9,30.49,WNW,296,0.0,0.0,36,0.00,CLR,,0.00,WeatherDisplay:10.37,2013-01-10 10:47:00,
2013-01-10 05:48:00,41.6,16.6,30.49,WNW,296,0.0,0.0,36,0.00,CLR,,0.00,WeatherDisplay:10.37,2013-01-10 10:48:00,
2013-01-10 05:49:00,41.5,17.1,30.49,WNW,296,0.0,0.0,37,0.00,CLR,,0.00,WeatherDisplay:10.37,2013-01-10 10:49:00,
2013-01-10 05:52:00,41.4,17.0,30.49,WNW,296,0.0,0.0,37,0.00,CLR,,0.00,WeatherDisplay:10.37,2013-01-10 10:52:00,
2013-01-10 05:53:00,41.4,17.0,30.49,WNW,296,0.0,0.0,37,0.00,CLR,,0.00,WeatherDisplay:10.37,2013-01-10 10:53:00,
2013-01-10 05:54:00,41.4,17.0,30.49,WNW,296,0.0,0.0,37,0.00,CLR,,0.00,WeatherDisplay:10.37,2013-01-10 10:54:00,
2013-01-10 05:58:00,41.0,16.7,30.49,WNW,296,0.0,0.0,37,0.00,CLR,,0.00,WeatherDisplay:10.37,2013-01-10 10:58:00,
2013-01-10 05:59:00,41.0,16.7,30.49,WNW,296,0.0,0.0,37,0.00,CLR,,0.00,WeatherDisplay:10.37,2013-01-10 10:59:00,
2013-01-10 06:00:00,40.9,16.6,30.49,WNW,296,0.0,0.0,37,0.00,CLR,,0.00,WeatherDisplay:10.37,2013-01-10 11:00:00,
2013-01-10 06:01:00,40.8,16.5,30.49,WNW,296,0.0,0.0,37,0.00,CLR,,0.00,WeatherDisplay:10.37,2013-01-10 11:01:00,
2013-01-10 06:04:00,40.8,17.1,30.49,WNW,296,0.0,0.0,38,0.00,CLR,,0.00,WeatherDisplay:10.37,2013-01-10 11:04:00,
2013-01-10 06:05:00,40.7,17.0,30.49,WNW,296,0.0,0.0,38,0.00,CLR,,0.00,WeatherDisplay:10.37,2013-01-10 11:05:00,
2013-01-10 06:06:00,40.5,16.9,30.50,WNW,296,0.0,0.0,38,0.00,CLR,,0.00,WeatherDisplay:10.37,2013-01-10 11:06:00,
2013-01-10 06:09:00,40.4,16.1,30.50,WNW,296,0.0,0.0,37,0.00,CLR,,0.00,WeatherDisplay:10.37,2013-01-10 11:09:00,
2013-01-10 06:10:00,40.4,16.8,30.50,WNW,296,0.0,0.0,38,0.00,CLR,,0.00,WeatherDisplay:10.37,2013-01-10 11:10:00,
2013-01-10 06:12:00,40.3,17.3,30.50,WNW,296,0.0,0.0,39,0.00,CLR,,0.00,WeatherDisplay:10.37,2013-01-10 11:12:00,
2013-01-10 06:18:00,40.2,17.8,30.50,WNW,296,0.0,0.0,40,0.00,CLR,,0.00,WeatherDisplay:10.37,2013-01-10 11:18:00,
2013-01-10 06:19:00,40.4,17.4,30.50,WNW,296,0.0,0.0,39,0.00,CLR,,0.00,WeatherDisplay:10.37,2013-01-10 11:19:00,
2013-01-10 06:24:00,41.0,17.3,30.51,North,8,5.4,5.4,38,0.00,CLR,,0.00,WeatherDisplay:10.37,2013-01-10 11:24:00,
2013-01-10 06:26:00,41.6,16.6,30.51,NNW,340,5.8,5.8,36,0.00,CLR,,0.00,WeatherDisplay:10.37,2013-01-10 11:26:00,
2013-01-10 06:29:00,41.9,16.2,30.51,NNW,342,0.0,7.0,35,0.00,CLR,,0.00,WeatherDisplay:10.37,2013-01-10 11:29:00,
2013-01-10 06:30:00,42.0,16.3,30.51,NNW,340,0.0,0.0,35,0.00,CLR,,0.00,WeatherDisplay:10.37,2013-01-10 11:30:00,
2013-01-10 06:31:00,42.1,16.4,30.51,NNW,340,0.0,0.0,35,0.00,CLR,,0.00,WeatherDisplay:10.37,2013-01-10 11:31:00,
2013-01-10 06:32:00,42.3,16.6,30.51,NNW,340,0.0,0.0,35,0.00,CLR,,0.00,WeatherDisplay:10.37,2013-01-10 11:32:00,
2013-01-10 06:35:00,42.4,16.6,30.51,NNW,340,0.0,0.0,35,0.00,CLR,,0.00,WeatherDisplay:10.37,2013-01-10 11:35:00,
2013-01-10 06:37:00,42.9,16.4,30.51,NNW,340,0.0,0.0,34,0.00,CLR,,0.00,WeatherDisplay:10.37,2013-01-10 11:37:00,
2013-01-10 06:40:00,43.4,15.5,30.51,NNW,340,0.0,0.0,32,0.00,CLR,,0.00,WeatherDisplay:10.37,2013-01-10 11:40:00,
2013-01-10 06:41:00,43.5,15.5,30.51,NNW,340,0.0,0.0,32,0.00,CLR,,0.00,WeatherDisplay:10.37,2013-01-10 11:41:00,
2013-01-10 06:43:00,44.0,15.3,30.51,NNW,340,0.0,0.0,31,0.00,CLR,,0.00,WeatherDisplay:10.37,2013-01-10 11:43:00,
2013-01-10 06:46:00,44.4,14.9,30.51,NNW,340,0.0,0.0,30,0.00,CLR,,0.00,WeatherDisplay:10.37,2013-01-10 11:46:00,
2013-01-10 06:48:00,44.7,15.1,30.52,NNW,340,0.0,0.0,30,0.00,CLR,,0.00,WeatherDisplay:10.37,2013-01-10 11:48:00,
2013-01-10 06:50:00,45.0,14.6,30.51,NNW,340,0.0,0.0,29,0.00,CLR,,0.00,WeatherDisplay:10.37,2013-01-10 11:50:00,
2013-01-10 06:52:00,45.3,14.9,30.51,NNW,340,0.0,0.0,29,0.00,CLR,,0.00,WeatherDisplay:10.37,2013-01-10 11:52:00,
2013-01-10 06:53:00,45.4,14.1,30.51,NNW,340,0.0,0.0,28,0.00,CLR,,0.00,WeatherDisplay:10.37,2013-01-10 11:53:00,
2013-01-10 06:54:00,45.6,14.3,30.52,NNW,340,0.0,0.0,28,0.00,CLR,,0.00,WeatherDisplay:10.37,2013-01-10 11:54:00,
2013-01-10 06:58:00,45.7,15.2,30.52,NNW,340,0.0,0.0,29,0.00,CLR,,0.00,WeatherDisplay:10.37,2013-01-10 11:58:00,
2013-01-10 06:59:00,45.6,15.1,30.52,NNW,340,0.0,0.0,29,0.00,CLR,,0.00,WeatherDisplay:10.37,2013-01-10 11:59:00,
2013-01-10 07:03:00,45.2,16.3,30.52,NNW,340,0.0,0.0,31,0.00,CLR,,0.00,WeatherDisplay:10.37,2013-01-10 12:03:00,
2013-01-10 07:04:00,45.2,16.3,30.52,NNW,340,0.0,0.0,31,0.00,CLR,,0.00,WeatherDisplay:10.37,2013-01-10 12:04:00,
2013-01-10 07:05:00,44.7,15.9,30.52,NNW,340,0.0,0.0,31,0.00,CLR,,0.00,WeatherDisplay:10.37,2013-01-10 12:05:00,
2013-01-10 07:09:00,43.9,15.9,30.52,NNW,340,0.0,0.0,32,0.00,CLR,,0.00,WeatherDisplay:10.37,2013-01-10 12:09:00,
2013-01-10 07:10:00,43.7,17.1,30.52,NNW,340,0.0,0.0,34,0.00,CLR,,0.00,WeatherDisplay:10.37,2013-01-10 12:10:00,
2013-01-10 07:11:00,43.4,17.5,30.52,NNW,340,0.0,0.0,35,0.00,CLR,,0.00,WeatherDisplay:10.37,2013-01-10 12:11:00,
2013-01-10 07:14:00,42.9,19.0,30.52,NNW,340,0.0,0.0,38,0.00,CLR,,0.00,WeatherDisplay:10.37,2013-01-10 12:14:00,
2013-01-10 07:16:00,42.3,19.7,30.53,NNW,340,0.0,0.0,40,0.00,CLR,,0.00,WeatherDisplay:10.37,2013-01-10 12:16:00,
2013-01-10 07:19:00,41.5,19.5,30.53,NNW,340,0.0,0.0,41,0.00,CLR,,0.00,WeatherDisplay:10.37,2013-01-10 12:19:00,
2013-01-10 07:20:00,41.3,19.9,30.53,NNW,340,0.0,0.0,42,0.00,CLR,,0.00,WeatherDisplay:10.37,2013-01-10 12:20:00,
2013-01-10 07:21:00,41.2,19.8,30.53,NNW,340,0.0,0.0,42,0.00,CLR,,0.00,WeatherDisplay:10.37,2013-01-10 12:21:00,
2013-01-10 07:24:00,40.7,20.0,30.53,NNW,340,0.0,0.0,43,0.00,CLR,,0.00,WeatherDisplay:10.37,2013-01-10 12:24:00,
2013-01-10 07:25:00,40.6,19.8,30.53,NNW,340,0.0,0.0,43,0.00,CLR,,0.00,WeatherDisplay:10.37,2013-01-10 12:25:00,
2013-01-10 07:26:00,40.7,19.9,30.53,NNW,340,0.0,0.0,43,0.00,CLR,,0.00,WeatherDisplay:10.37,2013-01-10 12:26:00,
2013-01-10 07:27:00,40.7,19.9,30.53,NNW,340,0.0,0.0,43,0.00,CLR,,0.00,WeatherDisplay:10.37,2013-01-10 12:27:00,
2013-01-10 07:29:00,40.8,19.4,30.54,NNW,340,0.0,0.0,42,0.00,CLR,,0.00,WeatherDisplay:10.37,2013-01-10 12:29:00,
2013-01-10 07:30:00,40.8,19.5,30.54,NNW,340,0.0,0.0,42,0.00,CLR,,0.00,WeatherDisplay:10.37,2013-01-10 12:30:00,
2013-01-10 07:31:00,41.0,19.1,30.54,NNW,340,0.0,0.0,41,0.00,CLR,,0.00,WeatherDisplay:10.37,2013-01-10 12:31:00,
2013-01-10 07:32:00,41.2,18.7,30.54,NNW,340,0.0,0.0,40,0.00,CLR,,0.00,WeatherDisplay:10.37,2013-01-10 12:32:00,
2013-01-10 07:34:00,41.3,18.8,30.54,NNW,340,0.0,0.0,40,0.00,CLR,,0.00,WeatherDisplay:10.37,2013-01-10 12:34:00,
2013-01-10 07:37:00,41.4,19.4,30.54,NNW,340,0.0,0.0,41,0.00,CLR,,0.00,WeatherDisplay:10.37,2013-01-10 12:37:00,
2013-01-10 07:38:00,41.5,18.9,30.54,NNW,340,0.0,0.0,40,0.00,CLR,,0.00,WeatherDisplay:10.37,2013-01-10 12:38:00,
2013-01-10 07:39:00,41.6,19.0,30.54,NNW,340,0.0,0.0,40,0.00,CLR,,0.00,WeatherDisplay:10.37,2013-01-10 12:39:00,
2013-01-10 07:42:00,41.8,19.2,30.54,NNW,340,0.0,0.0,40,0.00,CLR,,0.00,WeatherDisplay:10.37,2013-01-10 12:42:00,
2013-01-10 07:44:00,41.4,19.4,30.54,NNW,340,0.0,0.0,41,0.00,CLR,,0.00,WeatherDisplay:10.37,2013-01-10 12:44:00,
2013-01-10 07:45:00,41.4,19.4,30.54,NNW,340,0.0,0.0,41,0.00,CLR,,0.00,WeatherDisplay:10.37,2013-01-10 12:45:00,
2013-01-10 07:49:00,41.5,19.5,30.54,NNW,340,0.0,0.0,41,0.00,CLR,,0.00,WeatherDisplay:10.37,2013-01-10 12:49:00,
2013-01-10 07:50:00,41.6,19.0,30.54,NNW,340,0.0,0.0,40,0.00,CLR,,0.00,WeatherDisplay:10.37,2013-01-10 12:50:00,
2013-01-10 07:51:00,41.6,19.0,30.54,NNW,340,0.0,0.0,40,0.00,CLR,,0.00,WeatherDisplay:10.37,2013-01-10 12:51:00,
2013-01-10 07:54:00,41.9,18.7,30.54,NNW,340,0.0,0.0,39,0.00,CLR,,0.00,WeatherDisplay:10.37,2013-01-10 12:54:00,
2013-01-10 07:57:00,42.2,19.0,30.55,NNW,340,0.0,0.0,39,0.00,CLR,,0.00,WeatherDisplay:10.37,2013-01-10 12:57:00,
2013-01-10 07:58:00,42.2,19.0,30.55,NNW,340,0.0,0.0,39,0.00,CLR,,0.00,WeatherDisplay:10.37,2013-01-10 12:58:00,
2013-01-10 08:00:00,42.1,18.9,30.55,NNW,340,0.0,0.0,39,0.00,CLR,,0.00,WeatherDisplay:10.37,2013-01-10 13:00:00,
2013-01-10 08:02:00,42.2,19.0,30.56,NNW,340,0.0,0.0,39,0.00,CLR,,0.00,WeatherDisplay:10.37,2013-01-10 13:02:00,
2013-01-10 08:04:00,42.2,19.5,30.56,NNW,340,0.0,0.0,40,0.00,CLR,,0.00,WeatherDisplay:10.37,2013-01-10 13:04:00,
2013-01-10 08:05:00,42.2,19.0,30.56,NNW,340,0.0,0.0,39,0.00,CLR,,0.00,WeatherDisplay:10.37,2013-01-10 13:05:00,
2013-01-10 08:07:00,42.1,18.9,30.55,NNW,340,0.0,0.0,39,0.00,CLR,,0.00,WeatherDisplay:10.37,2013-01-10 13:07:00,
2013-01-10 08:10:00,42.4,18.6,30.55,NNW,340,0.0,0.0,38,0.00,CLR,,0.00,WeatherDisplay:10.37,2013-01-10 13:10:00,
2013-01-10 08:11:00,42.5,18.6,30.55,NNW,340,0.0,0.0,38,0.00,CLR,,0.00,WeatherDisplay:10.37,2013-01-10 13:11:00,
2013-01-10 08:12:00,42.9,17.7,30.56,NNW,340,0.0,0.0,36,0.00,CLR,,0.00,WeatherDisplay:10.37,2013-01-10 13:12:00,
2013-01-10 08:13:00,43.0,18.5,30.56,NNW,340,0.0,0.0,37,0.00,CLR,,0.00,WeatherDisplay:10.37,2013-01-10 13:13:00,
2013-01-10 08:16:00,42.8,18.9,30.56,NNW,340,0.0,0.0,38,0.00,CLR,,0.00,WeatherDisplay:10.37,2013-01-10 13:16:00,
2013-01-10 08:19:00,42.3,19.7,30.56,NNW,340,0.0,0.0,40,0.00,CLR,,0.00,WeatherDisplay:10.37,2013-01-10 13:19:00,
2013-01-10 08:20:00,41.9,20.4,30.56,NNW,340,0.0,0.0,42,0.00,CLR,,0.00,WeatherDisplay:10.37,2013-01-10 13:20:00,
2013-01-10 08:22:00,41.2,20.9,30.56,NNW,340,0.0,0.0,44,0.00,CLR,,0.00,WeatherDisplay:10.37,2013-01-10 13:22:00,
2013-01-10 08:23:00,40.8,20.5,30.56,NNW,340,0.0,0.0,44,0.00,CLR,,0.00,WeatherDisplay:10.37,2013-01-10 13:23:00,
2013-01-10 08:25:00,40.8,20.5,30.57,NNW,340,0.0,0.0,44,0.00,CLR,,0.00,WeatherDisplay:10.37,2013-01-10 13:25:00,
2013-01-10 08:26:00,40.8,20.5,30.56,NNW,340,0.0,0.0,44,0.00,CLR,,0.00,WeatherDisplay:10.37,2013-01-10 13:26:00,
2013-01-10 08:29:00,40.5,20.8,30.57,NNW,340,0.0,0.0,45,0.00,CLR,,0.00,WeatherDisplay:10.37,2013-01-10 13:29:00,
2013-01-10 08:30:00,40.4,20.7,30.57,NNW,340,0.0,0.0,45,0.00,CLR,,0.00,WeatherDisplay:10.37,2013-01-10 13:30:00,
2013-01-10 08:31:00,40.5,20.8,30.57,NNW,340,0.0,0.0,45,0.00,CLR,,0.00,WeatherDisplay:10.37,2013-01-10 13:31:00,
2013-01-10 08:34:00,40.5,20.8,30.57,NNW,340,0.0,0.0,45,0.00,CLR,,0.00,WeatherDisplay:10.37,2013-01-10 13:34:00,
2013-01-10 08:35:00,40.5,20.8,30.57,NNW,340,0.0,0.0,45,0.00,CLR,,0.00,WeatherDisplay:10.37,2013-01-10 13:35:00,
2013-01-10 08:39:00,40.5,20.3,30.57,NNW,340,0.0,0.0,44,0.00,CLR,,0.00,WeatherDisplay:10.37,2013-01-10 13:39:00,
2013-01-10 08:41:00,40.7,20.5,30.57,NNW,340,0.0,0.0,44,0.00,CLR,,0.00,WeatherDisplay:10.37,2013-01-10 13:41:00,
2013-01-10 08:43:00,40.8,20.5,30.57,NNW,340,0.0,0.0,44,0.00,CLR,,0.00,WeatherDisplay:10.37,2013-01-10 13:43:00,
2013-01-10 08:44:00,40.8,20.5,30.57,NNW,340,0.0,0.0,44,0.00,CLR,,0.00,WeatherDisplay:10.37,2013-01-10 13:44:00,
2013-01-10 08:47:00,41.2,20.4,30.57,NNW,340,0.0,0.0,43,0.00,CLR,,0.00,WeatherDisplay:10.37,2013-01-10 13:47:00,
2013-01-10 08:48:00,41.4,20.5,30.57,NNW,340,0.0,0.0,43,0.00,CLR,,0.00,WeatherDisplay:10.37,2013-01-10 13:48:00,
2013-01-10 08:49:00,41.6,20.7,30.57,NNW,340,0.0,0.0,43,0.00,CLR,,0.00,WeatherDisplay:10.37,2013-01-10 13:49:00,
2013-01-10 08:50:00,41.5,20.6,30.57,NNW,340,0.0,0.0,43,0.00,CLR,,0.00,WeatherDisplay:10.37,2013-01-10 13:50:00,
2013-01-10 08:52:00,41.6,20.7,30.57,NNW,340,0.0,0.0,43,0.00,CLR,,0.00,WeatherDisplay:10.37,2013-01-10 13:52:00,
2013-01-10 08:53:00,41.7,20.8,30.57,NNW,340,0.0,0.0,43,0.00,CLR,,0.00,WeatherDisplay:10.37,2013-01-10 13:53:00,
2013-01-10 08:56:00,41.8,20.4,30.57,NNW,340,0.0,0.0,42,0.00,CLR,,0.00,WeatherDisplay:10.37,2013-01-10 13:56:00,
2013-01-10 08:57:00,41.9,21.0,30.57,NNW,340,0.0,0.0,43,0.00,CLR,,0.00,WeatherDisplay:10.37,2013-01-10 13:57:00,
2013-01-10 09:00:00,42.1,21.2,30.57,NNW,340,0.0,0.0,43,0.00,CLR,,0.00,WeatherDisplay:10.37,2013-01-10 14:00:00,
2013-01-10 09:02:00,42.4,20.9,30.57,NNW,340,0.0,0.0,42,0.00,CLR,,0.00,WeatherDisplay:10.37,2013-01-10 14:02:00,
2013-01-10 09:04:00,42.5,20.4,30.57,NNW,340,0.0,0.0,41,0.00,CLR,,0.00,WeatherDisplay:10.37,2013-01-10 14:04:00,
2013-01-10 09:05:00,42.6,19.9,30.57,NNW,340,0.0,0.0,40,0.00,CLR,,0.00,WeatherDisplay:10.37,2013-01-10 14:05:00,
2013-01-10 09:07:00,42.9,20.2,30.57,NNW,340,0.0,0.0,40,0.00,CLR,,0.00,WeatherDisplay:10.37,2013-01-10 14:07:00,
2013-01-10 09:11:00,43.3,20.0,30.58,NNW,340,0.0,0.0,39,0.00,CLR,,0.00,WeatherDisplay:10.37,2013-01-10 14:11:00,
2013-01-10 09:12:00,43.4,19.5,30.57,NNW,340,0.0,0.0,38,0.00,CLR,,0.00,WeatherDisplay:10.37,2013-01-10 14:12:00,
2013-01-10 09:14:00,43.5,20.2,30.57,NNW,340,0.0,0.0,39,0.00,CLR,,0.00,WeatherDisplay:10.37,2013-01-10 14:14:00,
2013-01-10 09:17:00,44.0,20.0,30.57,NNW,340,0.0,0.0,38,0.00,CLR,,0.00,WeatherDisplay:10.37,2013-01-10 14:17:00,
2013-01-10 09:18:00,44.1,20.7,30.57,NNW,340,0.0,0.0,39,0.00,CLR,,0.00,WeatherDisplay:10.37,2013-01-10 14:18:00,
2013-01-10 09:19:00,44.2,19.5,30.58,NNW,340,0.0,0.0,37,0.00,CLR,,0.00,WeatherDisplay:10.37,2013-01-10 14:19:00,
2013-01-10 09:24:00,45.3,17.8,30.57,NNE,21,7.2,7.2,33,0.00,CLR,,0.00,WeatherDisplay:10.37,2013-01-10 14:24:00,
2013-01-10 09:25:00,46.0,17.0,30.57,North,3,6.9,6.9,31,0.00,CLR,,0.00,WeatherDisplay:10.37,2013-01-10 14:25:00,
2013-01-10 09:27:00,46.8,16.2,30.57,North,7,7.6,7.6,29,0.00,CLR,,0.00,WeatherDisplay:10.37,2013-01-10 14:27:00,
2013-01-10 09:29:00,47.1,16.4,30.57,NNW,348,5.0,10.0,29,0.00,CLR,,0.00,WeatherDisplay:10.37,2013-01-10 14:29:00,
2013-01-10 09:30:00,47.1,17.2,30.57,NW,323,9.2,9.2,30,0.00,CLR,,0.00,WeatherDisplay:10.37,2013-01-10 14:30:00,
2013-01-10 09:32:00,47.1,17.2,30.57,North,3,6.9,6.9,30,0.00,CLR,,0.00,WeatherDisplay:10.37,2013-01-10 14:32:00,
2013-01-10 09:33:00,47.1,17.2,30.57,North,3,6.9,6.9,30,0.00,CLR,,0.00,WeatherDisplay:10.37,2013-01-10 14:33:00,
2013-01-10 09:35:00,47.5,16.0,30.57,North,359,10.4,10.4,28,0.00,CLR,,0.00,WeatherDisplay:10.37,2013-01-10 14:35:00,
2013-01-10 09:37:00,47.8,16.2,30.57,North,3,8.1,8.1,28,0.00,CLR,,0.00,WeatherDisplay:10.37,2013-01-10 14:37:00,
2013-01-10 09:38:00,47.8,15.4,30.57,North,349,9.0,9.0,27,0.00,CLR,,0.00,WeatherDisplay:10.37,2013-01-10 14:38:00,
2013-01-10 09:41:00,48.1,15.6,30.57,North,7,9.2,9.2,27,0.00,CLR,,0.00,WeatherDisplay:10.37,2013-01-10 14:41:00,
2013-01-10 09:44:00,48.1,14.8,30.56,North,6,8.0,12.0,26,0.00,CLR,,0.00,WeatherDisplay:10.37,2013-01-10 14:44:00,
2013-01-10 09:47:00,48.1,15.6,30.56,North,349,9.2,9.2,27,0.00,CLR,,0.00,WeatherDisplay:10.37,2013-01-10 14:47:00,
2013-01-10 09:48:00,48.1,15.6,30.57,NNW,346,11.5,11.5,27,0.00,CLR,,0.00,WeatherDisplay:10.37,2013-01-10 14:48:00,
2013-01-10 09:50:00,48.0,15.6,30.57,NNW,335,9.9,9.9,27,0.00,CLR,,0.00,WeatherDisplay:10.37,2013-01-10 14:50:00,
2013-01-10 09:52:00,47.8,17.0,30.57,NNW,343,10.4,10.4,29,0.00,CLR,,0.00,WeatherDisplay:10.37,2013-01-10 14:52:00,
2013-01-10 09:56:00,47.4,16.7,30.57,North,352,9.2,9.2,29,0.00,CLR,,0.00,WeatherDisplay:10.37,2013-01-10 14:56:00,
2013-01-10 09:58:00,46.9,17.0,30.57,North,353,12.7,12.7,30,0.00,CLR,,0.00,WeatherDisplay:10.37,2013-01-10 14:58:00,
2013-01-10 09:59:00,47.0,17.1,30.57,NNW,348,9.0,13.0,30,0.00,CLR,,0.00,WeatherDisplay:10.37,2013-01-10 14:59:00,
2013-01-10 10:01:00,46.8,17.7,30.57,NW,323,10.4,10.4,31,0.00,CLR,,0.00,WeatherDisplay:10.37,2013-01-10 15:01:00,
2013-01-10 10:02:00,46.9,18.5,30.57,NNW,337,10.4,10.4,32,0.00,CLR,,0.00,WeatherDisplay:10.37,2013-01-10 15:02:00,
2013-01-10 10:04:00,47.0,17.9,30.57,NW,304,9.2,9.2,31,0.00,CLR,,0.00,WeatherDisplay:10.37,2013-01-10 15:04:00,
2013-01-10 10:06:00,47.1,18.7,30.58,WNW,284,6.9,6.9,32,0.00,CLR,,0.00,WeatherDisplay:10.37,2013-01-10 15:06:00,
2013-01-10 10:07:00,47.1,18.7,30.58,WNW,284,4.6,4.6,32,0.00,CLR,,0.00,WeatherDisplay:10.37,2013-01-10 15:07:00,
2013-01-10 10:08:00,47.0,19.3,30.58,WNW,284,0.0,0.0,33,0.00,CLR,,0.00,WeatherDisplay:10.37,2013-01-10 15:08:00,
2013-01-10 10:12:00,46.3,19.4,30.58,WNW,289,6.9,6.9,34,0.00,CLR,,0.00,WeatherDisplay:10.37,2013-01-10 15:12:00,
2013-01-10 10:13:00,46.3,20.1,30.57,West,265,5.8,5.8,35,0.00,CLR,,0.00,WeatherDisplay:10.37,2013-01-10 15:13:00,
2013-01-10 10:15:00,46.6,20.4,30.58,West,278,5.8,5.8,35,0.00,CLR,,0.00,WeatherDisplay:10.37,2013-01-10 15:15:00,
2013-01-10 10:17:00,46.7,19.8,30.58,West,278,0.0,0.0,34,0.00,CLR,,0.00,WeatherDisplay:10.37,2013-01-10 15:17:00,
2013-01-10 10:19:00,46.8,19.2,30.57,WNW,294,0.0,2.2,33,0.00,CLR,,0.00,WeatherDisplay:10.37,2013-01-10 15:19:00,
2013-01-10 10:20:00,47.0,19.3,30.57,SW,219,3.5,3.5,33,0.00,CLR,,0.00,WeatherDisplay:10.37,2013-01-10 15:20:00,
2013-01-10 10:21:00,47.0,19.3,30.57,SW,219,3.5,3.5,33,0.00,CLR,,0.00,WeatherDisplay:10.37,2013-01-10 15:21:00,
2013-01-10 10:22:00,47.1,19.4,30.57,SW,219,0.0,0.0,33,0.00,CLR,,0.00,WeatherDisplay:10.37,2013-01-10 15:22:00,
2013-01-10 10:25:00,47.4,18.2,30.57,WSW,237,3.5,0.0,31,0.00,CLR,,0.00,WeatherDisplay:10.37,2013-01-10 15:25:00,
2013-01-10 10:27:00,47.7,18.5,30.57,WSW,237,0.0,0.0,31,0.00,CLR,,0.00,WeatherDisplay:10.37,2013-01-10 15:27:00,
2013-01-10 10:28:00,47.7,18.5,30.57,WSW,237,0.0,0.0,31,0.00,CLR,,0.00,WeatherDisplay:10.37,2013-01-10 15:28:00,
2013-01-10 10:30:00,47.7,18.5,30.57,WSW,237,0.0,0.0,31,0.00,CLR,,0.00,WeatherDisplay:10.37,2013-01-10 15:30:00,
2013-01-10 10:31:00,47.8,17.8,30.57,WSW,237,0.0,0.0,30,0.00,CLR,,0.00,WeatherDisplay:10.37,2013-01-10 15:31:00,
2013-01-10 10:34:00,48.0,18.0,30.57,WSW,237,0.0,0.0,30,0.00,CLR,,0.00,WeatherDisplay:10.37,2013-01-10 15:34:00,
2013-01-10 10:36:00,48.2,18.9,30.57,WSW,237,0.0,0.0,31,0.00,CLR,,0.00,WeatherDisplay:10.37,2013-01-10 15:36:00,
2013-01-10 10:37:00,48.3,18.3,30.57,WSW,237,0.0,0.0,30,0.00,CLR,,0.00,WeatherDisplay:10.37,2013-01-10 15:37:00,
2013-01-10 10:41:00,48.4,18.3,30.57,WSW,237,0.0,0.0,30,0.00,CLR,,0.00,WeatherDisplay:10.37,2013-01-10 15:41:00,
2013-01-10 10:42:00,48.4,17.6,30.56,WSW,237,0.0,0.0,29,0.00,CLR,,0.00,WeatherDisplay:10.37,2013-01-10 15:42:00,
2013-01-10 10:43:00,48.4,17.6,30.56,WSW,237,0.0,0.0,29,0.00,CLR,,0.00,WeatherDisplay:10.37,2013-01-10 15:43:00,
2013-01-10 10:44:00,48.4,16.8,30.56,WSW,237,0.0,0.0,28,0.00,CLR,,0.00,WeatherDisplay:10.37,2013-01-10 15:44:00,
2013-01-10 10:46:00,48.5,16.8,30.56,WSW,237,0.0,0.0,28,0.00,CLR,,0.00,WeatherDisplay:10.37,2013-01-10 15:46:00,
2013-01-10 10:47:00,48.6,17.7,30.56,WSW,237,0.0,0.0,29,0.00,CLR,,0.00,WeatherDisplay:10.37,2013-01-10 15:47:00,
2013-01-10 10:48:00,48.6,16.9,30.56,WSW,237,0.0,0.0,28,0.00,CLR,,0.00,WeatherDisplay:10.37,2013-01-10 15:48:00,
2013-01-10 10:51:00,49.2,17.4,30.56,WSW,258,0.0,0.0,28,0.00,CLR,,0.00,WeatherDisplay:10.37,2013-01-10 15:51:00,
2013-01-10 10:53:00,49.3,15.8,30.56,WSW,258,0.0,0.0,26,0.00,CLR,,0.00,WeatherDisplay:10.37,2013-01-10 15:53:00,
2013-01-10 10:56:00,49.8,15.3,30.56,West,270,5.8,5.8,25,0.00,CLR,,0.00,WeatherDisplay:10.37,2013-01-10 15:56:00,
2013-01-10 10:58:00,50.3,14.8,30.56,West,270,0.0,0.0,24,0.00,CLR,,0.00,WeatherDisplay:10.37,2013-01-10 15:58:00,
2013-01-10 10:59:00,50.2,15.7,30.56,West,266,0.0,6.0,25,0.00,CLR,,0.00,WeatherDisplay:10.37,2013-01-10 15:59:00,
2013-01-10 11:03:00,50.7,14.2,30.56,NNW,330,6.9,6.9,23,0.00,CLR,,0.00,WeatherDisplay:10.37,2013-01-10 16:03:00,
2013-01-10 11:04:00,50.6,12.0,30.56,NNW,333,4.6,4.6,21,0.00,CLR,,0.00,WeatherDisplay:10.37,2013-01-10 16:04:00,
2013-01-10 11:09:00,51.2,11.4,30.55,NNW,340,0.0,3.0,20,0.00,CLR,,0.00,WeatherDisplay:10.37,2013-01-10 16:09:00,
2013-01-10 11:10:00,51.7,13.0,30.55,WNW,299,0.0,0.9,21,0.00,CLR,,0.00,WeatherDisplay:10.37,2013-01-10 16:10:00,
2013-01-10 11:11:00,51.7,10.7,30.55,WNW,299,0.0,0.0,19,0.00,CLR,,0.00,WeatherDisplay:10.37,2013-01-10 16:11:00,
2013-01-10 11:14:00,52.1,11.0,30.55,NW,318,0.0,0.0,19,0.00,CLR,,0.00,WeatherDisplay:10.37,2013-01-10 16:14:00,
2013-01-10 11:15:00,51.8,9.6,30.55,NW,318,0.0,0.0,18,0.00,CLR,,0.00,WeatherDisplay:10.37,2013-01-10 16:15:00,
2013-01-10 11:17:00,52.0,9.7,30.55,NW,318,0.0,0.0,18,0.00,CLR,,0.00,WeatherDisplay:10.37,2013-01-10 16:17:00,
2013-01-10 11:19:00,52.7,9.0,30.55,NW,318,0.0,0.0,17,0.00,CLR,,0.00,WeatherDisplay:10.37,2013-01-10 16:19:00,
2013-01-10 11:21:00,53.1,9.4,30.54,NW,318,0.0,0.0,17,0.00,CLR,,0.00,WeatherDisplay:10.37,2013-01-10 16:21:00,
2013-01-10 11:22:00,54.0,8.7,30.54,NW,318,0.0,0.0,16,0.00,CLR,,0.00,WeatherDisplay:10.37,2013-01-10 16:22:00,
2013-01-10 11:23:00,53.9,8.7,30.54,NW,318,0.0,0.0,16,0.00,CLR,,0.00,WeatherDisplay:10.37,2013-01-10 16:23:00,
2013-01-10 11:24:00,53.6,8.4,30.54,NW,318,0.0,0.0,16,0.00,CLR,,0.00,WeatherDisplay:10.37,2013-01-10 16:24:00,
2013-01-10 11:27:00,53.9,7.2,30.55,NW,318,0.0,0.0,15,0.00,CLR,,0.00,WeatherDisplay:10.37,2013-01-10 16:27:00,
2013-01-10 11:28:00,54.3,7.5,30.55,NW,318,0.0,0.0,15,0.00,CLR,,0.00,WeatherDisplay:10.37,2013-01-10 16:28:00,
2013-01-10 11:29:00,53.9,7.2,30.55,NW,318,0.0,0.0,15,0.00,CLR,,0.00,WeatherDisplay:10.37,2013-01-10 16:29:00,
2013-01-10 11:32:00,53.6,5.5,30.54,West,280,0.0,0.0,14,0.00,CLR,,0.00,WeatherDisplay:10.37,2013-01-10 16:32:00,
2013-01-10 11:34:00,53.7,5.5,30.54,WNW,296,0.0,6.0,14,0.00,CLR,,0.00,WeatherDisplay:10.37,2013-01-10 16:34:00,
2013-01-10 11:36:00,53.4,3.7,30.54,West,280,0.0,0.0,13,0.00,CLR,,0.00,WeatherDisplay:10.37,2013-01-10 16:36:00,
2013-01-10 11:38:00,54.6,7.8,30.54,West,280,0.0,0.0,15,0.00,CLR,,0.00,WeatherDisplay:10.37,2013-01-10 16:38:00,
2013-01-10 11:39:00,54.9,6.5,30.54,WSW,258,0.0,0.2,14,0.00,CLR,,0.00,WeatherDisplay:10.37,2013-01-10 16:39:00,
2013-01-10 11:40:00,54.9,6.5,30.54,WSW,258,0.0,0.2,14,0.00,CLR,,0.00,WeatherDisplay:10.37,2013-01-10 16:40:00,
2013-01-10 11:44:00,54.6,9.2,30.54,West,268,0.0,2.0,16,0.00,CLR,,0.00,WeatherDisplay:10.37,2013-01-10 16:44:00,
2013-01-10 11:45:00,54.6,7.8,30.54,WSW,244,5.0,5.0,15,0.00,CLR,,0.00,WeatherDisplay:10.37,2013-01-10 16:45:00,
2013-01-10 11:47:00,54.4,9.1,30.54,West,263,6.9,6.9,16,0.00,CLR,,0.00,WeatherDisplay:10.37,2013-01-10 16:47:00,
2013-01-10 11:49:00,53.8,8.6,30.53,West,280,5.0,7.0,16,0.00,CLR,,0.00,WeatherDisplay:10.37,2013-01-10 16:49:00,
2013-01-10 11:51:00,53.7,9.8,30.53,SW,224,5.8,5.8,17,0.00,CLR,,0.00,WeatherDisplay:10.37,2013-01-10 16:51:00,
2013-01-10 11:52:00,53.6,11.0,30.53,SSW,210,5.8,5.8,18,0.00,CLR,,0.00,WeatherDisplay:10.37,2013-01-10 16:52:00,
2013-01-10 11:53:00,54.4,10.4,30.53,SSW,210,0.0,0.0,17,0.00,CLR,,0.00,WeatherDisplay:10.37,2013-01-10 16:53:00,
2013-01-10 11:54:00,54.7,9.3,30.53,SSW,210,0.0,0.0,16,0.00,CLR,,0.00,WeatherDisplay:10.37,2013-01-10 16:54:00,
2013-01-10 11:56:00,54.7,6.3,30.53,WSW,257,6.9,6.9,14,0.00,CLR,,0.00,WeatherDisplay:10.37,2013-01-10 16:56:00,
2013-01-10 11:58:00,54.7,6.3,30.53,WSW,257,5.8,0.0,14,0.00,CLR,,0.00,WeatherDisplay:10.37,2013-01-10 16:58:00,
2013-01-10 11:59:00,55.0,6.6,30.53,WSW,257,0.0,0.0,14,0.00,CLR,,0.00,WeatherDisplay:10.37,2013-01-10 16:59:00,
2013-01-10 12:00:00,55.3,6.8,30.53,WSW,257,0.0,0.0,14,0.00,CLR,,0.00,WeatherDisplay:10.37,2013-01-10 17:00:00,
2013-01-10 12:03:00,55.9,5.7,30.53,WSW,257,0.0,0.0,13,0.00,CLR,,0.00,WeatherDisplay:10.37,2013-01-10 17:03:00,
2013-01-10 12:04:00,55.9,7.3,30.53,West,259,0.0,0.0,14,0.00,CLR,,0.00,WeatherDisplay:10.37,2013-01-10 17:04:00,
2013-01-10 12:05:00,56.0,4.0,30.53,WSW,257,0.0,0.0,12,0.00,CLR,,0.00,WeatherDisplay:10.37,2013-01-10 17:05:00,
2013-01-10 12:06:00,56.4,6.1,30.52,WSW,257,0.0,0.0,13,0.00,CLR,,0.00,WeatherDisplay:10.37,2013-01-10 17:06:00,
2013-01-10 12:08:00,56.7,2.7,30.52,NW,322,5.8,5.8,11,0.00,CLR,,0.00,WeatherDisplay:10.37,2013-01-10 17:08:00,
2013-01-10 12:10:00,56.6,2.6,30.52,NW,322,0.0,0.0,11,0.00,CLR,,0.00,WeatherDisplay:10.37,2013-01-10 17:10:00,
2013-01-10 12:11:00,56.8,4.6,30.52,NW,322,0.0,0.0,12,0.00,CLR,,0.00,WeatherDisplay:10.37,2013-01-10 17:11:00,
2013-01-10 12:12:00,56.9,2.8,30.52,NW,322,0.0,0.0,11,0.00,CLR,,0.00,WeatherDisplay:10.37,2013-01-10 17:12:00,
2013-01-10 12:14:00,56.5,4.4,30.52,NW,322,0.0,0.0,12,0.00,CLR,,0.00,WeatherDisplay:10.37,2013-01-10 17:14:00,
2013-01-10 12:16:00,56.9,4.7,30.52,NW,322,0.0,0.0,12,0.00,CLR,,0.00,WeatherDisplay:10.37,2013-01-10 17:16:00,
2013-01-10 12:18:00,56.8,4.6,30.52,NW,322,0.0,0.0,12,0.00,CLR,,0.00,WeatherDisplay:10.37,2013-01-10 17:18:00,
2013-01-10 12:20:00,57.9,-0.7,30.52,NW,322,0.0,0.0,9,0.00,CLR,,0.00,WeatherDisplay:10.37,2013-01-10 17:20:00,
2013-01-10 12:22:00,58.3,-0.4,30.52,NW,322,0.0,0.0,9,0.00,CLR,,0.00,WeatherDisplay:10.37,2013-01-10 17:22:00,
2013-01-10 12:23:00,58.5,-0.3,30.52,NW,322,0.0,0.0,9,0.00,CLR,,0.00,WeatherDisplay:10.37,2013-01-10 17:23:00,
2013-01-10 12:24:00,59.6,-4.7,30.51,NW,322,0.0,0.0,7,0.00,CLR,,0.00,WeatherDisplay:10.37,2013-01-10 17:24:00,
2013-01-10 12:28:00,60.1,-1.5,30.51,NW,322,0.0,0.0,8,0.00,CLR,,0.00,WeatherDisplay:10.37,2013-01-10 17:28:00,
2013-01-10 12:29:00,60.3,-1.4,30.51,NW,322,0.0,0.0,8,0.00,CLR,,0.00,WeatherDisplay:10.37,2013-01-10 17:29:00,
2013-01-10 12:31:00,60.1,-1.5,30.51,NW,322,0.0,0.0,8,0.00,CLR,,0.00,WeatherDisplay:10.37,2013-01-10 17:31:00,
2013-01-10 12:35:00,59.0,0.1,30.51,SW,236,0.0,0.0,9,0.00,CLR,,0.00,WeatherDisplay:10.37,2013-01-10 17:35:00,
2013-01-10 12:36:00,58.9,0.1,30.51,SW,236,0.0,0.0,9,0.00,CLR,,0.00,WeatherDisplay:10.37,2013-01-10 17:36:00,
2013-01-10 12:37:00,58.5,-0.3,30.51,SW,236,0.0,0.0,9,0.00,CLR,,0.00,WeatherDisplay:10.37,2013-01-10 17:37:00,
2013-01-10 12:38:00,58.3,-0.4,30.51,WNW,285,4.6,4.6,9,0.00,CLR,,0.00,WeatherDisplay:10.37,2013-01-10 17:38:00,
2013-01-10 12:40:00,57.7,-0.9,30.51,WNW,285,0.0,0.0,9,0.00,CLR,,0.00,WeatherDisplay:10.37,2013-01-10 17:40:00,
2013-01-10 12:42:00,56.8,0.7,30.51,WNW,285,0.0,0.0,10,0.00,CLR,,0.00,WeatherDisplay:10.37,2013-01-10 17:42:00,
2013-01-10 12:43:00,56.0,2.1,30.50,WNW,285,0.0,0.0,11,0.00,CLR,,0.00,WeatherDisplay:10.37,2013-01-10 17:43:00,
2013-01-10 12:44:00,56.4,2.4,30.50,West,273,0.0,0.0,11,0.00,CLR,,0.00,WeatherDisplay:10.37,2013-01-10 17:44:00,
2013-01-10 12:45:00,56.1,2.2,30.50,WNW,285,0.0,0.0,11,0.00,CLR,,0.00,WeatherDisplay:10.37,2013-01-10 17:45:00,
2013-01-10 12:47:00,56.2,0.2,30.50,WNW,285,0.0,0.0,10,0.00,CLR,,0.00,WeatherDisplay:10.37,2013-01-10 17:47:00,
2013-01-10 12:49:00,57.1,0.9,30.50,WNW,285,0.0,0.0,10,0.00,CLR,,0.00,WeatherDisplay:10.37,2013-01-10 17:49:00,
2013-01-10 12:50:00,57.7,1.4,30.50,WNW,285,0.0,0.0,10,0.00,CLR,,0.00,WeatherDisplay:10.37,2013-01-10 17:50:00,
2013-01-10 12:54:00,59.0,-2.4,30.50,WNW,285,0.0,0.0,8,0.00,CLR,,0.00,WeatherDisplay:10.37,2013-01-10 17:54:00,
2013-01-10 12:55:00,59.3,-4.9,30.50,WNW,285,0.0,0.0,7,0.00,CLR,,0.00,WeatherDisplay:10.37,2013-01-10 17:55:00,
2013-01-10 12:56:00,59.2,-5.0,30.50,WNW,285,0.0,0.0,7,0.00,CLR,,0.00,WeatherDisplay:10.37,2013-01-10 17:56:00,
2013-01-10 12:59:00,59.7,-4.6,30.49,WNW,285,0.0,0.0,7,0.00,CLR,,0.00,WeatherDisplay:10.37,2013-01-10 17:59:00,
2013-01-10 13:00:00,60.0,-4.4,30.49,WNW,285,0.0,0.0,7,0.00,CLR,,0.00,WeatherDisplay:10.37,2013-01-10 18:00:00,
2013-01-10 13:02:00,60.4,-7.3,30.49,WNW,285,0.0,0.0,6,0.00,CLR,,0.00,WeatherDisplay:10.37,2013-01-10 18:02:00,
2013-01-10 13:03:00,60.3,-7.4,30.49,WSW,243,4.8,4.8,6,0.00,CLR,,0.00,WeatherDisplay:10.37,2013-01-10 18:03:00,
2013-01-10 13:06:00,61.2,-6.7,30.49,SW,230,3.5,0.0,6,0.00,CLR,,0.00,WeatherDisplay:10.37,2013-01-10 18:06:00,
2013-01-10 13:08:00,62.2,-9.7,30.49,SSW,198,0.0,0.0,5,0.00,CLR,,0.00,WeatherDisplay:10.37,2013-01-10 18:08:00,
2013-01-10 13:09:00,62.5,-9.5,30.49,SE,124,8.1,8.1,5,0.00,CLR,,0.00,WeatherDisplay:10.37,2013-01-10 18:09:00,
2013-01-10 13:11:00,61.4,-6.6,30.49,SE,130,8.1,8.1,6,0.00,CLR,,0.00,WeatherDisplay:10.37,2013-01-10 18:11:00,
2013-01-10 13:12:00,61.5,-6.5,30.49,SSE,147,8.1,8.1,6,0.00,CLR,,0.00,WeatherDisplay:10.37,2013-01-10 18:12:00,
2013-01-10 13:14:00,62.1,-9.8,30.49,ESE,109,5.8,0.0,5,0.00,CLR,,0.00,WeatherDisplay:10.37,2013-01-10 18:14:00,
2013-01-10 13:17:00,61.5,-10.3,30.49,ESE,109,0.0,0.0,5,0.00,CLR,,0.00,WeatherDisplay:10.37,2013-01-10 18:17:00,
2013-01-10 13:18:00,61.5,-6.5,30.49,ESE,109,0.0,0.0,6,0.00,CLR,,0.00,WeatherDisplay:10.37,2013-01-10 18:18:00,
2013-01-10 13:19:00,61.0,-10.6,30.49,SSE,157,2.6,3.3,5,0.00,CLR,,0.00,WeatherDisplay:10.37,2013-01-10 18:19:00,
2013-01-10 13:23:00,60.5,-7.2,30.49,ESE,113,0.0,0.0,6,0.00,CLR,,0.00,WeatherDisplay:10.37,2013-01-10 18:23:00,
2013-01-10 13:24:00,60.5,-7.2,30.49,ESE,113,0.0,0.0,6,0.00,CLR,,0.00,WeatherDisplay:10.37,2013-01-10 18:24:00,
2013-01-10 13:29:00,60.5,-7.2,30.49,ESE,114,4.6,4.6,6,0.00,CLR,,0.00,WeatherDisplay:10.37,2013-01-10 18:29:00,
2013-01-10 13:31:00,60.7,-7.1,30.49,SE,140,4.6,4.6,6,0.00,CLR,,0.00,WeatherDisplay:10.37,2013-01-10 18:31:00,
2013-01-10 13:34:00,60.4,-7.3,30.49,ESE,111,5.0,7.0,6,0.00,CLR,,0.00,WeatherDisplay:10.37,2013-01-10 18:34:00,
2013-01-10 13:35:00,60.4,-7.3,30.49,SE,128,4.6,4.6,6,0.00,CLR,,0.00,WeatherDisplay:10.37,2013-01-10 18:35:00,
2013-01-10 13:36:00,60.5,-7.2,30.48,SE,124,6.9,6.9,6,0.00,CLR,,0.00,WeatherDisplay:10.37,2013-01-10 18:36:00,
2013-01-10 13:37:00,60.2,-7.5,30.48,SE,124,6.9,6.9,6,0.00,CLR,,0.00,WeatherDisplay:10.37,2013-01-10 18:37:00,
2013-01-10 13:39:00,59.8,-7.8,30.49,ENE,65,6.9,6.9,6,0.00,CLR,,0.00,WeatherDisplay:10.37,2013-01-10 18:39:00,
2013-01-10 13:40:00,59.5,-8.0,30.48,East,97,6.9,6.9,6,0.00,CLR,,0.00,WeatherDisplay:10.37,2013-01-10 18:40:00,
2013-01-10 13:43:00,59.2,-8.2,30.49,ENE,76,6.9,6.9,6,0.00,CLR,,0.00,WeatherDisplay:10.37,2013-01-10 18:43:00,
2013-01-10 13:45:00,58.6,-8.6,30.48,East,93,8.1,8.1,6,0.00,CLR,,0.00,WeatherDisplay:10.37,2013-01-10 18:45:00,
2013-01-10 13:46:00,58.5,-5.5,30.48,East,83,8.1,8.1,7,0.00,CLR,,0.00,WeatherDisplay:10.37,2013-01-10 18:46:00,
2013-01-10 13:48:00,58.6,-8.6,30.48,ESE,114,0.0,0.0,6,0.00,CLR,,0.00,WeatherDisplay:10.37,2013-01-10 18:48:00,
2013-01-10 13:52:00,59.3,-8.1,30.49,ESE,114,0.0,0.0,6,0.00,CLR,,0.00,WeatherDisplay:10.37,2013-01-10 18:52:00,
2013-01-10 13:53:00,59.3,-8.1,30.49,ESE,114,0.0,0.0,6,0.00,CLR,,0.00,WeatherDisplay:10.37,2013-01-10 18:53:00,
2013-01-10 13:57:00,59.5,-8.0,30.49,SE,124,5.8,5.8,6,0.00,CLR,,0.00,WeatherDisplay:10.37,2013-01-10 18:57:00,
2013-01-10 13:59:00,59.6,-7.9,30.48,SE,131,4.6,4.6,6,0.00,CLR,,0.00,WeatherDisplay:10.37,2013-01-10 18:59:00,
2013-01-10 14:01:00,59.5,-8.0,30.48,SE,131,0.0,0.0,6,0.00,CLR,,0.00,WeatherDisplay:10.37,2013-01-10 19:01:00,
2013-01-10 14:04:00,59.9,-7.7,30.49,ESE,123,4.6,4.6,6,0.00,CLR,,0.00,WeatherDisplay:10.37,2013-01-10 19:04:00,
2013-01-10 14:06:00,60.0,-7.6,30.49,ESE,109,5.2,5.2,6,0.00,CLR,,0.00,WeatherDisplay:10.37,2013-01-10 19:06:00,
2013-01-10 14:07:00,60.0,-7.6,30.48,ESE,112,6.4,6.4,6,0.00,CLR,,0.00,WeatherDisplay:10.37,2013-01-10 19:07:00,
2013-01-10 14:09:00,59.7,-7.8,30.48,SE,125,3.0,8.0,6,0.00,CLR,,0.00,WeatherDisplay:10.37,2013-01-10 19:09:00,
2013-01-10 14:14:00,59.3,-8.1,30.48,SE,131,8.1,8.1,6,0.00,CLR,,0.00,WeatherDisplay:10.37,2013-01-10 19:14:00,
2013-01-10 14:15:00,59.3,-4.9,30.48,South,169,8.1,8.1,7,0.00,CLR,,0.00,WeatherDisplay:10.37,2013-01-10 19:15:00,
2013-01-10 14:19:00,59.3,-8.1,30.48,East,88,6.9,6.9,6,0.00,CLR,,0.00,WeatherDisplay:10.37,2013-01-10 19:19:00,
2013-01-10 14:20:00,59.4,-4.9,30.48,SE,126,6.9,6.9,7,0.00,CLR,,0.00,WeatherDisplay:10.37,2013-01-10 19:20:00,
2013-01-10 14:21:00,59.1,-5.1,30.48,ESE,113,8.1,8.1,7,0.00,CLR,,0.00,WeatherDisplay:10.37,2013-01-10 19:21:00,
2013-01-10 14:25:00,59.1,-8.3,30.48,SE,130,6.9,6.9,6,0.00,CLR,,0.00,WeatherDisplay:10.37,2013-01-10 19:25:00,
2013-01-10 14:26:00,59.1,-8.3,30.48,SE,130,3.5,0.0,6,0.00,CLR,,0.00,WeatherDisplay:10.37,2013-01-10 19:26:00,
2013-01-10 14:28:00,59.4,-8.1,30.48,ESE,119,6.9,6.9,6,0.00,CLR,,0.00,WeatherDisplay:10.37,2013-01-10 19:28:00,
2013-01-10 14:31:00,59.0,-8.3,30.49,ESE,104,8.1,8.1,6,0.00,CLR,,0.00,WeatherDisplay:10.37,2013-01-10 19:31:00,
2013-01-10 14:32:00,58.7,-5.4,30.49,ESE,107,8.1,8.1,7,0.00,CLR,,0.00,WeatherDisplay:10.37,2013-01-10 19:32:00,
2013-01-10 14:33:00,58.7,-8.6,30.49,SE,124,5.8,0.0,6,0.00,CLR,,0.00,WeatherDisplay:10.37,2013-01-10 19:33:00,
2013-01-10 14:38:00,58.5,-8.7,30.49,ESE,116,6.8,6.8,6,0.00,CLR,,0.00,WeatherDisplay:10.37,2013-01-10 19:38:00,
2013-01-10 14:39:00,58.5,-8.7,30.49,ESE,116,1.0,8.0,6,0.00,CLR,,0.00,WeatherDisplay:10.37,2013-01-10 19:39:00,
2013-01-10 14:44:00,58.1,-5.8,30.48,East,86,1.2,1.2,7,0.00,CLR,,0.00,WeatherDisplay:10.37,2013-01-10 19:44:00,
2013-01-10 14:45:00,58.2,-5.8,30.48,East,86,1.2,1.2,7,0.00,CLR,,0.00,WeatherDisplay:10.37,2013-01-10 19:45:00,
2013-01-10 14:47:00,58.1,-5.8,30.49,East,86,0.0,0.0,7,0.00,CLR,,0.00,WeatherDisplay:10.37,2013-01-10 19:47:00,
2013-01-10 14:50:00,57.4,-9.5,30.49,East,86,6.9,6.9,6,0.00,CLR,,0.00,WeatherDisplay:10.37,2013-01-10 19:50:00,
2013-01-10 14:52:00,56.8,-10.0,30.48,ENE,68,6.9,6.9,6,0.00,CLR,,0.00,WeatherDisplay:10.37,2013-01-10 19:52:00,
2013-01-10 14:55:00,56.7,-6.9,30.48,East,88,4.6,4.6,7,0.00,CLR,,0.00,WeatherDisplay:10.37,2013-01-10 19:55:00,
2013-01-10 14:58:00,56.9,-6.7,30.48,ESE,104,5.8,5.8,7,0.00,CLR,,0.00,WeatherDisplay:10.37,2013-01-10 19:58:00,
2013-01-10 15:01:00,57.4,-9.5,30.48,ENE,66,6.9,6.9,6,0.00,CLR,,0.00,WeatherDisplay:10.37,2013-01-10 20:01:00,
2013-01-10 15:02:00,56.8,-6.8,30.48,East,88,5.8,5.8,7,0.00,CLR,,0.00,WeatherDisplay:10.37,2013-01-10 20:02:00,
2013-01-10 15:03:00,57.3,-6.4,30.48,SE,130,5.8,5.8,7,0.00,CLR,,0.00,WeatherDisplay:10.37,2013-01-10 20:03:00,
2013-01-10 15:06:00,57.3,-9.6,30.48,SE,133,6.9,6.9,6,0.00,CLR,,0.00,WeatherDisplay:10.37,2013-01-10 20:06:00,
2013-01-10 15:07:00,57.6,-6.2,30.48,ESE,117,4.6,0.0,7,0.00,CLR,,0.00,WeatherDisplay:10.37,2013-01-10 20:07:00,
2013-01-10 15:10:00,58.1,-5.8,30.48,ESE,117,0.0,0.0,7,0.00,CLR,,0.00,WeatherDisplay:10.37,2013-01-10 20:10:00,
2013-01-10 15:11:00,58.0,-5.9,30.48,ESE,120,4.7,4.7,7,0.00,CLR,,0.00,WeatherDisplay:10.37,2013-01-10 20:11:00,
2013-01-10 15:13:00,57.8,-9.2,30.48,ESE,110,5.8,5.8,6,0.00,CLR,,0.00,WeatherDisplay:10.37,2013-01-10 20:13:00,
2013-01-10 15:16:00,57.7,-6.1,30.48,ESE,110,2.3,0.0,7,0.00,CLR,,0.00,WeatherDisplay:10.37,2013-01-10 20:16:00,
2013-01-10 15:18:00,58.2,-5.8,30.48,SE,133,6.9,6.9,7,0.00,CLR,,0.00,WeatherDisplay:10.37,2013-01-10 20:18:00,
2013-01-10 15:22:00,58.2,-3.0,30.48,South,172,6.9,6.9,8,0.00,CLR,,0.00,WeatherDisplay:10.37,2013-01-10 20:22:00,
2013-01-10 15:23:00,58.4,-5.6,30.48,SE,137,5.8,5.8,7,0.00,CLR,,0.00,WeatherDisplay:10.37,2013-01-10 20:23:00,
2013-01-10 15:24:00,58.3,-2.9,30.48,ESE,117,6.9,6.9,8,0.00,CLR,,0.00,WeatherDisplay:10.37,2013-01-10 20:24:00,
2013-01-10 15:27:00,58.1,-9.0,30.48,ENE,68,8.1,8.1,6,0.00,CLR,,0.00,WeatherDisplay:10.37,2013-01-10 20:27:00,
2013-01-10 15:30:00,57.7,-6.1,30.48,ESE,116,5.8,5.8,7,0.00,CLR,,0.00,WeatherDisplay:10.37,2013-01-10 20:30:00,
2013-01-10 15:32:00,57.9,-6.0,30.48,ESE,116,0.0,0.0,7,0.00,CLR,,0.00,WeatherDisplay:10.37,2013-01-10 20:32:00,
2013-01-10 15:35:00,57.9,-6.0,30.48,SSW,192,6.9,6.9,7,0.00,CLR,,0.00,WeatherDisplay:10.37,2013-01-10 20:35:00,
2013-01-10 15:36:00,57.9,-3.2,30.48,SSE,158,3.5,3.5,8,0.00,CLR,,0.00,WeatherDisplay:10.37,2013-01-10 20:36:00,
2013-01-10 15:37:00,58.1,-5.8,30.48,SSE,158,4.6,4.6,7,0.00,CLR,,0.00,WeatherDisplay:10.37,2013-01-10 20:37:00,
2013-01-10 15:41:00,57.8,-6.1,30.48,ESE,107,8.1,8.1,7,0.00,CLR,,0.00,WeatherDisplay:10.37,2013-01-10 20:41:00,
2013-01-10 15:42:00,57.9,-6.0,30.48,SE,127,7.7,7.7,7,0.00,CLR,,0.00,WeatherDisplay:10.37,2013-01-10 20:42:00,
2013-01-10 15:46:00,57.6,-6.2,30.48,ESE,102,6.9,6.9,7,0.00,CLR,,0.00,WeatherDisplay:10.37,2013-01-10 20:46:00,
2013-01-10 15:47:00,57.6,-6.2,30.48,ESE,102,0.0,0.0,7,0.00,CLR,,0.00,WeatherDisplay:10.37,2013-01-10 20:47:00,
2013-01-10 15:48:00,57.4,-6.4,30.48,ESE,102,0.0,0.0,7,0.00,CLR,,0.00,WeatherDisplay:10.37,2013-01-10 20:48:00,
2013-01-10 15:52:00,58.2,-5.8,30.48,SSE,165,0.0,0.0,7,0.00,CLR,,0.00,WeatherDisplay:10.37,2013-01-10 20:52:00,
2013-01-10 15:53:00,58.5,-5.5,30.48,SSE,165,0.0,0.0,7,0.00,CLR,,0.00,WeatherDisplay:10.37,2013-01-10 20:53:00,
2013-01-10 15:54:00,59.2,-5.0,30.48,ESE,117,4.6,4.6,7,0.00,CLR,,0.00,WeatherDisplay:10.37,2013-01-10 20:54:00,
2013-01-10 15:57:00,60.2,-7.5,30.48,SSE,154,5.8,5.8,6,0.00,CLR,,0.00,WeatherDisplay:10.37,2013-01-10 20:57:00,
2013-01-10 15:58:00,60.7,-7.1,30.48,ESE,113,5.8,5.8,6,0.00,CLR,,0.00,WeatherDisplay:10.37,2013-01-10 20:58:00,
2013-01-10 16:00:00,60.4,-7.3,30.48,ENE,66,0.0,2.6,6,0.00,CLR,,0.00,WeatherDisplay:10.37,2013-01-10 21:00:00,
2013-01-10 16:02:00,60.7,-7.1,30.48,SE,128,0.0,0.0,6,0.00,CLR,,0.00,WeatherDisplay:10.37,2013-01-10 21:02:00,
2013-01-10 16:04:00,60.4,-7.3,30.48,SE,128,0.0,0.0,6,0.00,CLR,,0.00,WeatherDisplay:10.37,2013-01-10 21:04:00,
2013-01-10 16:05:00,60.3,-7.4,30.48,SE,128,0.0,0.0,6,0.00,CLR,,0.00,WeatherDisplay:10.37,2013-01-10 21:05:00,
2013-01-10 16:10:00,59.8,-7.8,30.48,SE,128,0.0,0.0,6,0.00,CLR,,0.00,WeatherDisplay:10.37,2013-01-10 21:10:00,
2013-01-10 16:11:00,59.8,-7.8,30.48,SE,128,0.0,0.0,6,0.00,CLR,,0.00,WeatherDisplay:10.37,2013-01-10 21:11:00,
2013-01-10 16:14:00,59.5,-8.0,30.48,SE,128,0.0,0.0,6,0.00,CLR,,0.00,WeatherDisplay:10.37,2013-01-10 21:14:00,
2013-01-10 16:16:00,59.3,-8.1,30.48,SE,128,0.0,0.0,6,0.00,CLR,,0.00,WeatherDisplay:10.37,2013-01-10 21:16:00,
2013-01-10 16:18:00,59.5,-8.0,30.48,SE,128,0.0,0.0,6,0.00,CLR,,0.00,WeatherDisplay:10.37,2013-01-10 21:18:00,
2013-01-10 16:19:00,59.3,-8.1,30.48,SE,128,4.2,4.2,6,0.00,CLR,,0.00,WeatherDisplay:10.37,2013-01-10 21:19:00,
2013-01-10 16:22:00,58.8,-8.5,30.48,East,82,6.0,6.0,6,0.00,CLR,,0.00,WeatherDisplay:10.37,2013-01-10 21:22:00,
2013-01-10 16:24:00,58.7,-8.6,30.48,East,85,5.8,0.0,6,0.00,CLR,,0.00,WeatherDisplay:10.37,2013-01-10 21:24:00,
2013-01-10 16:27:00,58.9,-8.4,30.48,East,85,0.0,0.0,6,0.00,CLR,,0.00,WeatherDisplay:10.37,2013-01-10 21:27:00,
2013-01-10 16:28:00,58.6,-8.6,30.48,ESE,109,6.9,6.9,6,0.00,CLR,,0.00,WeatherDisplay:10.37,2013-01-10 21:28:00,
2013-01-10 16:29:00,58.7,-8.6,30.48,East,91,5.0,8.0,6,0.00,CLR,,0.00,WeatherDisplay:10.37,2013-01-10 21:29:00,
2013-01-10 16:33:00,58.5,-5.5,30.48,East,88,4.6,0.0,7,0.00,CLR,,0.00,WeatherDisplay:10.37,2013-01-10 21:33:00,
2013-01-10 16:34:00,58.3,-5.7,30.48,East,88,0.0,0.0,7,0.00,CLR,,0.00,WeatherDisplay:10.37,2013-01-10 21:34:00,
2013-01-10 16:39:00,58.0,-5.9,30.48,ESE,111,0.0,6.0,7,0.00,CLR,,0.00,WeatherDisplay:10.37,2013-01-10 21:39:00,
2013-01-10 16:44:00,57.8,-3.3,30.48,East,93,5.8,5.8,8,0.00,CLR,,0.00,WeatherDisplay:10.37,2013-01-10 21:44:00,
2013-01-10 16:47:00,56.9,-6.7,30.48,ENE,66,6.9,6.9,7,0.00,CLR,,0.00,WeatherDisplay:10.37,2013-01-10 21:47:00,
2013-01-10 16:49:00,56.7,-6.9,30.48,ENE,66,0.0,0.0,7,0.00,CLR,,0.00,WeatherDisplay:10.37,2013-01-10 21:49:00,
2013-01-10 16:54:00,56.3,-4.4,30.48,ENE,73,0.0,5.0,8,0.00,CLR,,0.00,WeatherDisplay:10.37,2013-01-10 21:54:00,
2013-01-10 16:55:00,55.9,-4.7,30.48,East,90,0.0,0.0,8,0.00,CLR,,0.00,WeatherDisplay:10.37,2013-01-10 21:55:00,
2013-01-10 16:59:00,55.6,-2.4,30.48,ESE,110,0.0,7.0,9,0.00,CLR,,0.00,WeatherDisplay:10.37,2013-01-10 21:59:00,
2013-01-10 17:01:00,55.2,-2.8,30.48,East,89,4.6,0.0,9,0.00,CLR,,0.00,WeatherDisplay:10.37,2013-01-10 22:01:00,
2013-01-10 17:05:00,54.8,-0.9,30.48,ENE,72,5.8,0.0,10,0.00,CLR,,0.00,WeatherDisplay:10.37,2013-01-10 22:05:00,
2013-01-10 17:07:00,54.8,-0.9,30.49,ENE,72,0.0,0.0,10,0.00,CLR,,0.00,WeatherDisplay:10.37,2013-01-10 22:07:00,
2013-01-10 17:09:00,54.4,-1.2,30.49,ENE,72,0.0,0.0,10,0.00,CLR,,0.00,WeatherDisplay:10.37,2013-01-10 22:09:00,
2013-01-10 17:11:00,54.9,-0.8,30.49,ENE,72,0.0,0.0,10,0.00,CLR,,0.00,WeatherDisplay:10.37,2013-01-10 22:11:00,
2013-01-10 17:12:00,54.6,-1.0,30.49,ENE,72,0.0,0.0,10,0.00,CLR,,0.00,WeatherDisplay:10.37,2013-01-10 22:12:00,
2013-01-10 17:14:00,54.6,-1.0,30.49,ENE,72,0.0,0.0,10,0.00,CLR,,0.00,WeatherDisplay:10.37,2013-01-10 22:14:00,
2013-01-10 17:16:00,54.6,-1.0,30.49,ENE,72,0.0,0.0,10,0.00,CLR,,0.00,WeatherDisplay:10.37,2013-01-10 22:16:00,
2013-01-10 17:18:00,54.7,1.1,30.49,ENE,72,0.0,0.0,11,0.00,CLR,,0.00,WeatherDisplay:10.37,2013-01-10 22:18:00,
2013-01-10 17:19:00,54.6,1.0,30.49,ENE,72,0.0,0.0,11,0.00,CLR,,0.00,WeatherDisplay:10.37,2013-01-10 22:19:00,
2013-01-10 17:21:00,54.3,0.8,30.49,ENE,72,0.0,0.0,11,0.00,CLR,,0.00,WeatherDisplay:10.37,2013-01-10 22:21:00,
2013-01-10 17:23:00,53.7,2.2,30.49,ENE,72,0.0,0.0,12,0.00,CLR,,0.00,WeatherDisplay:10.37,2013-01-10 22:23:00,
2013-01-10 17:25:00,53.9,2.4,30.49,ENE,72,0.0,0.0,12,0.00,CLR,,0.00,WeatherDisplay:10.37,2013-01-10 22:25:00,
2013-01-10 17:27:00,53.2,1.8,30.49,ENE,72,0.0,0.0,12,0.00,CLR,,0.00,WeatherDisplay:10.37,2013-01-10 22:27:00,
2013-01-10 17:28:00,52.9,1.6,30.49,ENE,72,0.0,0.0,12,0.00,CLR,,0.00,WeatherDisplay:10.37,2013-01-10 22:28:00,
2013-01-10 17:30:00,53.2,3.5,30.49,ENE,72,0.0,0.0,13,0.00,CLR,,0.00,WeatherDisplay:10.37,2013-01-10 22:30:00,
2013-01-10 17:34:00,53.0,3.4,30.49,ENE,72,0.0,0.0,13,0.00,CLR,,0.00,WeatherDisplay:10.37,2013-01-10 22:34:00,
2013-01-10 17:39:00,52.2,4.3,30.49,ENE,72,0.0,0.0,14,0.00,CLR,,0.00,WeatherDisplay:10.37,2013-01-10 22:39:00,
2013-01-10 17:40:00,52.1,4.3,30.49,ENE,72,0.0,0.0,14,0.00,CLR,,0.00,WeatherDisplay:10.37,2013-01-10 22:40:00,
2013-01-10 17:45:00,52.0,4.2,30.49,ENE,72,0.0,0.0,14,0.00,CLR,,0.00,WeatherDisplay:10.37,2013-01-10 22:45:00,
2013-01-10 17:47:00,52.5,4.6,30.49,ENE,72,0.0,0.0,14,0.00,CLR,,0.00,WeatherDisplay:10.37,2013-01-10 22:47:00,
2013-01-10 17:51:00,51.6,5.4,30.49,ENE,72,0.0,0.0,15,0.00,CLR,,0.00,WeatherDisplay:10.37,2013-01-10 22:51:00,
2013-01-10 17:52:00,51.2,5.0,30.49,ENE,72,0.0,0.0,15,0.00,CLR,,0.00,WeatherDisplay:10.37,2013-01-10 22:52:00,
2013-01-10 17:53:00,51.4,5.2,30.49,ENE,72,0.0,0.0,15,0.00,CLR,,0.00,WeatherDisplay:10.37,2013-01-10 22:53:00,
2013-01-10 17:57:00,51.8,5.5,30.49,ENE,72,0.0,0.0,15,0.00,CLR,,0.00,WeatherDisplay:10.37,2013-01-10 22:57:00,
2013-01-10 18:00:00,51.2,5.0,30.49,ENE,72,0.0,0.0,15,0.00,CLR,,0.00,WeatherDisplay:10.37,2013-01-10 23:00:00,
2013-01-10 18:02:00,51.1,5.0,30.49,ENE,72,0.0,0.0,15,0.00,CLR,,0.00,WeatherDisplay:10.37,2013-01-10 23:02:00,
2013-01-10 18:03:00,51.1,5.0,30.49,ENE,72,0.0,0.0,15,0.00,CLR,,0.00,WeatherDisplay:10.37,2013-01-10 23:03:00,
2013-01-10 18:06:00,51.4,5.2,30.49,ENE,72,0.0,0.0,15,0.00,CLR,,0.00,WeatherDisplay:10.37,2013-01-10 23:06:00,
2013-01-10 18:08:00,51.1,6.4,30.49,ENE,72,0.0,0.0,16,0.00,CLR,,0.00,WeatherDisplay:10.37,2013-01-10 23:08:00,
2013-01-10 18:09:00,50.7,6.1,30.49,ENE,72,0.0,0.0,16,0.00,CLR,,0.00,WeatherDisplay:10.37,2013-01-10 23:09:00,
2013-01-10 18:11:00,51.1,6.4,30.49,ENE,72,0.0,0.0,16,0.00,CLR,,0.00,WeatherDisplay:10.37,2013-01-10 23:11:00,
2013-01-10 18:14:00,50.8,6.1,30.49,ENE,72,0.0,0.0,16,0.00,CLR,,0.00,WeatherDisplay:10.37,2013-01-10 23:14:00,
2013-01-10 18:16:00,50.7,6.1,30.49,ENE,72,0.0,0.0,16,0.00,CLR,,0.00,WeatherDisplay:10.37,2013-01-10 23:16:00,
2013-01-10 18:19:00,50.7,6.1,30.49,ENE,72,0.0,0.0,16,0.00,CLR,,0.00,WeatherDisplay:10.37,2013-01-10 23:19:00,
2013-01-10 18:21:00,50.4,5.8,30.49,ENE,72,0.0,0.0,16,0.00,CLR,,0.00,WeatherDisplay:10.37,2013-01-10 23:21:00,
2013-01-10 18:23:00,50.5,5.9,30.49,ENE,72,0.0,0.0,16,0.00,CLR,,0.00,WeatherDisplay:10.37,2013-01-10 23:23:00,
2013-01-10 18:24:00,50.5,5.9,30.50,ENE,72,0.0,0.0,16,0.00,CLR,,0.00,WeatherDisplay:10.37,2013-01-10 23:24:00,
2013-01-10 18:26:00,50.4,5.8,30.50,ENE,72,0.0,0.0,16,0.00,CLR,,0.00,WeatherDisplay:10.37,2013-01-10 23:26:00,
2013-01-10 18:28:00,50.5,7.2,30.50,ENE,72,0.0,0.0,17,0.00,CLR,,0.00,WeatherDisplay:10.37,2013-01-10 23:28:00,
2013-01-10 18:30:00,50.3,7.1,30.50,ENE,72,0.0,0.0,17,0.00,CLR,,0.00,WeatherDisplay:10.37,2013-01-10 23:30:00,
2013-01-10 18:33:00,50.2,7.0,30.50,ENE,72,0.0,0.0,17,0.00,CLR,,0.00,WeatherDisplay:10.37,2013-01-10 23:33:00,
2013-01-10 18:35:00,50.6,7.3,30.50,ENE,72,0.0,0.0,17,0.00,CLR,,0.00,WeatherDisplay:10.37,2013-01-10 23:35:00,
2013-01-10 18:36:00,50.4,8.4,30.50,ENE,72,0.0,0.0,18,0.00,CLR,,0.00,WeatherDisplay:10.37,2013-01-10 23:36:00,
2013-01-10 18:39:00,50.0,8.1,30.50,ENE,72,0.0,0.0,18,0.00,CLR,,0.00,WeatherDisplay:10.37,2013-01-10 23:39:00,
2013-01-10 18:41:00,50.1,9.4,30.50,ENE,72,0.0,0.0,19,0.00,CLR,,0.00,WeatherDisplay:10.37,2013-01-10 23:41:00,
2013-01-10 18:44:00,50.0,9.3,30.49,ENE,72,0.0,0.0,19,0.00,CLR,,0.00,WeatherDisplay:10.37,2013-01-10 23:44:00,
2013-01-10 18:47:00,49.7,10.2,30.49,ENE,72,0.0,0.0,20,0.00,CLR,,0.00,WeatherDisplay:10.37,2013-01-10 23:47:00,
2013-01-10 18:49:00,49.8,10.3,30.49,ENE,72,0.0,0.0,20,0.00,CLR,,0.00,WeatherDisplay:10.37,2013-01-10 23:49:00,
2013-01-10 18:51:00,49.3,12.0,30.49,ENE,72,0.0,0.0,22,0.00,CLR,,0.00,WeatherDisplay:10.37,2013-01-10 23:51:00,
2013-01-10 18:53:00,49.1,11.8,30.49,ENE,72,0.0,0.0,22,0.00,CLR,,0.00,WeatherDisplay:10.37,2013-01-10 23:53:00,
2013-01-10 18:54:00,48.7,12.5,30.49,ENE,72,0.0,0.0,23,0.00,CLR,,0.00,WeatherDisplay:10.37,2013-01-10 23:54:00,
2013-01-10 18:57:00,48.5,12.3,30.49,ENE,72,0.0,0.0,23,0.00,CLR,,0.00,WeatherDisplay:10.37,2013-01-10 23:57:00,
2013-01-10 18:58:00,48.5,12.3,30.49,ENE,72,0.0,0.0,23,0.00,CLR,,0.00,WeatherDisplay:10.37,2013-01-10 23:58:00,
2013-01-10 18:59:00,48.5,13.3,30.49,ENE,72,0.0,0.0,24,0.00,CLR,,0.00,WeatherDisplay:10.37,2013-01-10 23:59:00,
2013-01-10 19:03:00,48.5,13.3,30.49,ENE,72,0.0,0.0,24,0.00,CLR,,0.00,WeatherDisplay:10.37,2013-01-11 00:03:00,
2013-01-10 19:04:00,48.5,13.3,30.49,ENE,72,0.0,0.0,24,0.00,CLR,,0.00,WeatherDisplay:10.37,2013-01-11 00:04:00,
2013-01-10 19:05:00,48.5,13.3,30.49,ENE,72,0.0,0.0,24,0.00,CLR,,0.00,WeatherDisplay:10.37,2013-01-11 00:05:00,
2013-01-10 19:09:00,48.4,13.2,30.49,ENE,72,0.0,0.0,24,0.00,CLR,,0.00,WeatherDisplay:10.37,2013-01-11 00:09:00,
2013-01-10 19:10:00,48.5,13.3,30.49,ENE,72,0.0,0.0,24,0.00,CLR,,0.00,WeatherDisplay:10.37,2013-01-11 00:10:00,
2013-01-10 19:11:00,48.4,13.2,30.49,ENE,72,0.0,0.0,24,0.00,CLR,,0.00,WeatherDisplay:10.37,2013-01-11 00:11:00,
2013-01-10 19:14:00,48.4,14.1,30.48,ENE,72,0.0,0.0,25,0.00,CLR,,0.00,WeatherDisplay:10.37,2013-01-11 00:14:00,
2013-01-10 19:16:00,48.3,13.1,30.48,ENE,72,0.0,0.0,24,0.00,CLR,,0.00,WeatherDisplay:10.37,2013-01-11 00:16:00,
2013-01-10 19:17:00,48.4,13.2,30.48,ENE,72,0.0,0.0,24,0.00,CLR,,0.00,WeatherDisplay:10.37,2013-01-11 00:17:00,
2013-01-10 19:20:00,48.4,13.2,30.48,ENE,72,0.0,0.0,24,0.00,CLR,,0.00,WeatherDisplay:10.37,2013-01-11 00:20:00,
2013-01-10 19:23:00,48.4,13.2,30.48,ENE,72,0.0,0.0,24,0.00,CLR,,0.00,WeatherDisplay:10.37,2013-01-11 00:23:00,
2013-01-10 19:25:00,48.4,13.2,30.48,ENE,72,0.0,0.0,24,0.00,CLR,,0.00,WeatherDisplay:10.37,2013-01-11 00:25:00,
2013-01-10 19:27:00,48.4,12.2,30.48,ENE,72,0.0,0.0,23,0.00,CLR,,0.00,WeatherDisplay:10.37,2013-01-11 00:27:00,
2013-01-10 19:28:00,48.4,12.2,30.49,ENE,72,0.0,0.0,23,0.00,CLR,,0.00,WeatherDisplay:10.37,2013-01-11 00:28:00,
2013-01-10 19:30:00,48.4,13.2,30.49,ENE,72,0.0,0.0,24,0.00,CLR,,0.00,WeatherDisplay:10.37,2013-01-11 00:30:00,
2013-01-10 19:32:00,48.5,13.3,30.48,ENE,72,0.0,0.0,24,0.00,CLR,,0.00,WeatherDisplay:10.37,2013-01-11 00:32:00,
2013-01-10 19:35:00,48.4,12.2,30.48,ENE,72,0.0,0.0,23,0.00,CLR,,0.00,WeatherDisplay:10.37,2013-01-11 00:35:00,
2013-01-10 19:36:00,48.4,13.2,30.48,ENE,72,0.0,0.0,24,0.00,CLR,,0.00,WeatherDisplay:10.37,2013-01-11 00:36:00,
2013-01-10 19:37:00,48.4,13.2,30.48,ENE,72,0.0,0.0,24,0.00,CLR,,0.00,WeatherDisplay:10.37,2013-01-11 00:37:00,
2013-01-10 19:41:00,48.4,12.2,30.48,ENE,72,0.0,0.0,23,0.00,CLR,,0.00,WeatherDisplay:10.37,2013-01-11 00:41:00,
2013-01-10 19:43:00,48.4,13.2,30.48,ENE,72,0.0,0.0,24,0.00,CLR,,0.00,WeatherDisplay:10.37,2013-01-11 00:43:00,
2013-01-10 19:47:00,48.4,12.2,30.48,ENE,72,0.0,0.0,23,0.00,CLR,,0.00,WeatherDisplay:10.37,2013-01-11 00:47:00,
2013-01-10 19:49:00,48.5,12.3,30.48,ENE,72,0.0,0.0,23,0.00,CLR,,0.00,WeatherDisplay:10.37,2013-01-11 00:49:00,
2013-01-10 19:52:00,48.5,12.3,30.48,ENE,72,0.0,0.0,23,0.00,CLR,,0.00,WeatherDisplay:10.37,2013-01-11 00:52:00,
2013-01-10 19:53:00,48.4,11.2,30.48,ENE,72,0.0,0.0,22,0.00,CLR,,0.00,WeatherDisplay:10.37,2013-01-11 00:53:00,
2013-01-10 19:58:00,48.5,12.3,30.48,ENE,72,0.0,0.0,23,0.00,CLR,,0.00,WeatherDisplay:10.37,2013-01-11 00:58:00,
2013-01-10 19:59:00,48.5,12.3,30.48,ENE,72,0.0,0.0,23,0.00,CLR,,0.00,WeatherDisplay:10.37,2013-01-11 00:59:00,
2013-01-10 20:03:00,48.4,13.2,30.48,ENE,72,0.0,0.0,24,0.00,CLR,,0.00,WeatherDisplay:10.37,2013-01-11 01:03:00,
2013-01-10 20:04:00,48.4,13.2,30.48,ENE,72,0.0,0.0,24,0.00,CLR,,0.00,WeatherDisplay:10.37,2013-01-11 01:04:00,
2013-01-10 20:08:00,48.1,13.9,30.48,ENE,72,0.0,0.0,25,0.00,CLR,,0.00,WeatherDisplay:10.37,2013-01-11 01:08:00,
2013-01-10 20:10:00,48.0,14.7,30.48,ENE,72,0.0,0.0,26,0.00,CLR,,0.00,WeatherDisplay:10.37,2013-01-11 01:10:00,
2013-01-10 20:13:00,47.6,15.2,30.48,ENE,72,0.0,0.0,27,0.00,CLR,,0.00,WeatherDisplay:10.37,2013-01-11 01:13:00,
2013-01-10 20:15:00,47.7,15.3,30.48,ENE,72,0.0,0.0,27,0.00,CLR,,0.00,WeatherDisplay:10.37,2013-01-11 01:15:00,
2013-01-10 20:16:00,47.5,15.1,30.48,ENE,72,0.0,0.0,27,0.00,CLR,,0.00,WeatherDisplay:10.37,2013-01-11 01:16:00,
2013-01-10 20:19:00,47.4,15.9,30.48,ENE,72,0.0,0.0,28,0.00,CLR,,0.00,WeatherDisplay:10.37,2013-01-11 01:19:00,
2013-01-10 20:20:00,47.4,15.9,30.48,ENE,72,0.0,0.0,28,0.00,CLR,,0.00,WeatherDisplay:10.37,2013-01-11 01:20:00,
2013-01-10 20:23:00,47.4,15.9,30.48,ENE,72,0.0,0.0,28,0.00,CLR,,0.00,WeatherDisplay:10.37,2013-01-11 01:23:00,
2013-01-10 20:24:00,47.4,15.9,30.48,ENE,72,0.0,0.0,28,0.00,CLR,,0.00,WeatherDisplay:10.37,2013-01-11 01:24:00,
2013-01-10 20:26:00,47.5,16.0,30.48,ENE,72,0.0,0.0,28,0.00,CLR,,0.00,WeatherDisplay:10.37,2013-01-11 01:26:00,
2013-01-10 20:28:00,47.7,15.3,30.48,ENE,72,0.0,0.0,27,0.00,CLR,,0.00,WeatherDisplay:10.37,2013-01-11 01:28:00,
2013-01-10 20:30:00,47.9,14.6,30.48,ENE,72,0.0,0.0,26,0.00,CLR,,0.00,WeatherDisplay:10.37,2013-01-11 01:30:00,
2013-01-10 20:33:00,48.2,14.0,30.48,ENE,72,0.0,0.0,25,0.00,CLR,,0.00,WeatherDisplay:10.37,2013-01-11 01:33:00,
2013-01-10 20:35:00,48.2,14.9,30.48,ENE,72,0.0,0.0,26,0.00,CLR,,0.00,WeatherDisplay:10.37,2013-01-11 01:35:00,
2013-01-10 20:37:00,48.3,15.0,30.48,ENE,72,0.0,0.0,26,0.00,CLR,,0.00,WeatherDisplay:10.37,2013-01-11 01:37:00,
2013-01-10 20:40:00,48.1,13.9,30.48,ENE,72,0.0,0.0,25,0.00,CLR,,0.00,WeatherDisplay:10.37,2013-01-11 01:40:00,
2013-01-10 20:41:00,48.4,15.0,30.48,ENE,72,0.0,0.0,26,0.00,CLR,,0.00,WeatherDisplay:10.37,2013-01-11 01:41:00,
2013-01-10 20:42:00,48.4,14.1,30.48,ENE,72,0.0,0.0,25,0.00,CLR,,0.00,WeatherDisplay:10.37,2013-01-11 01:42:00,
2013-01-10 20:45:00,48.2,13.0,30.48,ENE,72,0.0,0.0,24,0.00,CLR,,0.00,WeatherDisplay:10.37,2013-01-11 01:45:00,
2013-01-10 20:47:00,48.4,14.1,30.48,ENE,72,0.0,0.0,25,0.00,CLR,,0.00,WeatherDisplay:10.37,2013-01-11 01:47:00,
2013-01-10 20:51:00,48.4,15.9,30.48,ENE,72,0.0,0.0,27,0.00,CLR,,0.00,WeatherDisplay:10.37,2013-01-11 01:51:00,
2013-01-10 20:53:00,48.4,15.9,30.48,ENE,72,0.0,0.0,27,0.00,CLR,,0.00,WeatherDisplay:10.37,2013-01-11 01:53:00,
2013-01-10 20:56:00,48.4,14.1,30.48,ENE,72,0.0,0.0,25,0.00,CLR,,0.00,WeatherDisplay:10.37,2013-01-11 01:56:00,
2013-01-10 20:59:00,48.4,13.2,30.48,ENE,72,0.0,0.0,24,0.00,CLR,,0.00,WeatherDisplay:10.37,2013-01-11 01:59:00,
2013-01-10 21:00:00,48.4,13.2,30.48,ENE,72,0.0,0.0,24,0.00,CLR,,0.00,WeatherDisplay:10.37,2013-01-11 02:00:00,
2013-01-10 21:02:00,48.4,13.2,30.48,ENE,72,0.0,0.0,24,0.00,CLR,,0.00,WeatherDisplay:10.37,2013-01-11 02:02:00,
2013-01-10 21:05:00,48.4,14.1,30.48,ENE,72,0.0,0.0,25,0.00,CLR,,0.00,WeatherDisplay:10.37,2013-01-11 02:05:00,
2013-01-10 21:06:00,48.4,14.1,30.48,ENE,72,0.0,0.0,25,0.00,CLR,,0.00,WeatherDisplay:10.37,2013-01-11 02:06:00,
2013-01-10 21:08:00,48.3,15.0,30.48,ENE,72,0.0,0.0,26,0.00,CLR,,0.00,WeatherDisplay:10.37,2013-01-11 02:08:00,
2013-01-10 21:11:00,48.2,15.7,30.48,ENE,72,0.0,0.0,27,0.00,CLR,,0.00,WeatherDisplay:10.37,2013-01-11 02:11:00,
2013-01-10 21:14:00,48.2,16.6,30.48,ENE,72,0.0,0.0,28,0.00,CLR,,0.00,WeatherDisplay:10.37,2013-01-11 02:14:00,
2013-01-10 21:16:00,48.3,16.7,30.48,ENE,72,0.0,0.0,28,0.00,CLR,,0.00,WeatherDisplay:10.37,2013-01-11 02:16:00,
2013-01-10 21:17:00,48.2,17.4,30.48,ENE,72,0.0,0.0,29,0.00,CLR,,0.00,WeatherDisplay:10.37,2013-01-11 02:17:00,
2013-01-10 21:19:00,48.2,16.6,30.48,ENE,72,0.0,0.0,28,0.00,CLR,,0.00,WeatherDisplay:10.37,2013-01-11 02:19:00,
2013-01-10 21:21:00,48.3,17.5,30.48,ENE,72,0.0,0.0,29,0.00,CLR,,0.00,WeatherDisplay:10.37,2013-01-11 02:21:00,
2013-01-10 21:22:00,48.2,16.6,30.48,ENE,72,0.0,0.0,28,0.00,CLR,,0.00,WeatherDisplay:10.37,2013-01-11 02:22:00,
2013-01-10 21:24:00,48.3,16.7,30.48,ENE,72,0.0,0.0,28,0.00,CLR,,0.00,WeatherDisplay:10.37,2013-01-11 02:24:00,
2013-01-10 21:27:00,48.1,15.6,30.48,ENE,72,0.0,0.0,27,0.00,CLR,,0.00,WeatherDisplay:10.37,2013-01-11 02:27:00,
2013-01-10 21:30:00,48.3,15.8,30.48,ENE,72,0.0,0.0,27,0.00,CLR,,0.00,WeatherDisplay:10.37,2013-01-11 02:30:00,
2013-01-10 21:33:00,48.1,15.6,30.47,ENE,72,0.0,0.0,27,0.00,CLR,,0.00,WeatherDisplay:10.37,2013-01-11 02:33:00,
2013-01-10 21:35:00,47.9,15.5,30.48,ENE,72,0.0,0.0,27,0.00,CLR,,0.00,WeatherDisplay:10.37,2013-01-11 02:35:00,
2013-01-10 21:38:00,47.8,16.2,30.47,ENE,72,0.0,0.0,28,0.00,CLR,,0.00,WeatherDisplay:10.37,2013-01-11 02:38:00,
2013-01-10 21:40:00,47.6,16.9,30.47,ENE,72,0.0,0.0,29,0.00,CLR,,0.00,WeatherDisplay:10.37,2013-01-11 02:40:00,
2013-01-10 21:44:00,47.4,17.5,30.48,ENE,72,0.0,0.0,30,0.00,CLR,,0.00,WeatherDisplay:10.37,2013-01-11 02:44:00,
2013-01-10 21:47:00,47.4,16.7,30.47,ENE,72,0.0,0.0,29,0.00,CLR,,0.00,WeatherDisplay:10.37,2013-01-11 02:47:00,
2013-01-10 21:49:00,47.5,17.6,30.47,ENE,72,0.0,0.0,30,0.00,CLR,,0.00,WeatherDisplay:10.37,2013-01-11 02:49:00,
2013-01-10 21:51:00,47.6,16.9,30.47,ENE,72,0.0,0.0,29,0.00,CLR,,0.00,WeatherDisplay:10.37,2013-01-11 02:51:00,
2013-01-10 21:52:00,47.6,16.9,30.47,ENE,72,0.0,0.0,29,0.00,CLR,,0.00,WeatherDisplay:10.37,2013-01-11 02:52:00,
2013-01-10 21:54:00,47.4,17.5,30.47,ENE,72,0.0,0.0,30,0.00,CLR,,0.00,WeatherDisplay:10.37,2013-01-11 02:54:00,
2013-01-10 21:57:00,47.1,18.0,30.47,ENE,72,0.0,0.0,31,0.00,CLR,,0.00,WeatherDisplay:10.37,2013-01-11 02:57:00,
2013-01-10 21:59:00,47.1,18.0,30.47,ENE,72,0.0,0.0,31,0.00,CLR,,0.00,WeatherDisplay:10.37,2013-01-11 02:59:00,
2013-01-10 22:02:00,47.2,18.1,30.47,ENE,72,0.0,0.0,31,0.00,CLR,,0.00,WeatherDisplay:10.37,2013-01-11 03:02:00,
2013-01-10 22:04:00,47.4,18.2,30.47,ENE,72,0.0,0.0,31,0.00,CLR,,0.00,WeatherDisplay:10.37,2013-01-11 03:04:00,
2013-01-10 22:06:00,47.3,18.1,30.47,ENE,72,0.0,0.0,31,0.00,CLR,,0.00,WeatherDisplay:10.37,2013-01-11 03:06:00,
2013-01-10 22:08:00,47.5,17.6,30.47,ENE,72,0.0,0.0,30,0.00,CLR,,0.00,WeatherDisplay:10.37,2013-01-11 03:08:00,
2013-01-10 22:10:00,47.7,17.7,30.47,ENE,72,0.0,0.0,30,0.00,CLR,,0.00,WeatherDisplay:10.37,2013-01-11 03:10:00,
2013-01-10 22:11:00,47.7,18.5,30.47,ENE,72,0.0,0.0,31,0.00,CLR,,0.00,WeatherDisplay:10.37,2013-01-11 03:11:00,
2013-01-10 22:13:00,47.7,18.5,30.47,ENE,72,0.0,0.0,31,0.00,CLR,,0.00,WeatherDisplay:10.37,2013-01-11 03:13:00,
2013-01-10 22:16:00,48.1,18.1,30.47,ENE,72,0.0,0.0,30,0.00,CLR,,0.00,WeatherDisplay:10.37,2013-01-11 03:16:00,
2013-01-10 22:19:00,48.2,17.4,30.47,ENE,72,0.0,0.0,29,0.00,CLR,,0.00,WeatherDisplay:10.37,2013-01-11 03:19:00,
2013-01-10 22:22:00,48.0,17.2,30.47,ENE,72,0.0,0.0,29,0.00,CLR,,0.00,WeatherDisplay:10.37,2013-01-11 03:22:00,
2013-01-10 22:25:00,48.0,18.0,30.47,ENE,72,0.0,0.0,30,0.00,CLR,,0.00,WeatherDisplay:10.37,2013-01-11 03:25:00,
2013-01-10 22:27:00,47.8,17.8,30.47,ENE,72,0.0,0.0,30,0.00,CLR,,0.00,WeatherDisplay:10.37,2013-01-11 03:27:00,
2013-01-10 22:31:00,47.6,17.6,30.47,ENE,72,0.0,0.0,30,0.00,CLR,,0.00,WeatherDisplay:10.37,2013-01-11 03:31:00,
2013-01-10 22:32:00,47.5,18.3,30.46,ENE,72,0.0,0.0,31,0.00,CLR,,0.00,WeatherDisplay:10.37,2013-01-11 03:32:00,
2013-01-10 22:33:00,47.5,18.3,30.46,ENE,72,0.0,0.0,31,0.00,CLR,,0.00,WeatherDisplay:10.37,2013-01-11 03:33:00,
2013-01-10 22:36:00,47.3,18.1,30.46,ENE,72,0.0,0.0,31,0.00,CLR,,0.00,WeatherDisplay:10.37,2013-01-11 03:36:00,
2013-01-10 22:38:00,47.2,18.1,30.46,ENE,72,0.0,0.0,31,0.00,CLR,,0.00,WeatherDisplay:10.37,2013-01-11 03:38:00,
2013-01-10 22:41:00,47.1,18.0,30.46,ENE,72,0.0,0.0,31,0.00,CLR,,0.00,WeatherDisplay:10.37,2013-01-11 03:41:00,
2013-01-10 22:43:00,47.1,18.0,30.46,ENE,72,0.0,0.0,31,0.00,CLR,,0.00,WeatherDisplay:10.37,2013-01-11 03:43:00,
2013-01-10 22:46:00,47.0,17.9,30.47,ENE,72,0.0,0.0,31,0.00,CLR,,0.00,WeatherDisplay:10.37,2013-01-11 03:46:00,
2013-01-10 22:48:00,46.8,18.5,30.46,ENE,72,0.0,0.0,32,0.00,CLR,,0.00,WeatherDisplay:10.37,2013-01-11 03:48:00,
2013-01-10 22:49:00,46.7,18.4,30.46,ENE,72,0.0,0.0,32,0.00,CLR,,0.00,WeatherDisplay:10.37,2013-01-11 03:49:00,
2013-01-10 22:51:00,46.3,18.0,30.47,ENE,72,0.0,0.0,32,0.00,CLR,,0.00,WeatherDisplay:10.37,2013-01-11 03:51:00,
2013-01-10 22:54:00,46.2,17.9,30.47,ENE,72,0.0,0.0,32,0.00,CLR,,0.00,WeatherDisplay:10.37,2013-01-11 03:54:00,
2013-01-10 22:57:00,46.0,18.5,30.47,ENE,72,0.0,0.0,33,0.00,CLR,,0.00,WeatherDisplay:10.37,2013-01-11 03:57:00,
2013-01-10 22:59:00,45.9,19.1,30.47,ENE,72,0.0,0.0,34,0.00,CLR,,0.00,WeatherDisplay:10.37,2013-01-11 03:59:00,
2013-01-10 23:00:00,45.9,19.1,30.47,ENE,72,0.0,0.0,34,0.00,CLR,,0.00,WeatherDisplay:10.37,2013-01-11 04:00:00,
2013-01-10 23:02:00,45.9,19.1,30.47,ENE,72,0.0,0.0,34,0.00,CLR,,0.00,WeatherDisplay:10.37,2013-01-11 04:02:00,
2013-01-10 23:05:00,46.0,18.5,30.46,ENE,72,0.0,0.0,33,0.00,CLR,,0.00,WeatherDisplay:10.37,2013-01-11 04:05:00,
2013-01-10 23:07:00,45.9,19.1,30.46,ENE,72,0.0,0.0,34,0.00,CLR,,0.00,WeatherDisplay:10.37,2013-01-11 04:07:00,
2013-01-10 23:08:00,45.9,19.1,30.46,ENE,72,0.0,0.0,34,0.00,CLR,,0.00,WeatherDisplay:10.37,2013-01-11 04:08:00,
2013-01-10 23:10:00,45.8,19.0,30.46,ENE,72,0.0,0.0,34,0.00,CLR,,0.00,WeatherDisplay:10.37,2013-01-11 04:10:00,
2013-01-10 23:13:00,45.7,18.9,30.46,ENE,72,0.0,0.0,34,0.00,CLR,,0.00,WeatherDisplay:10.37,2013-01-11 04:13:00,
2013-01-10 23:14:00,45.8,19.0,30.46,ENE,72,0.0,0.0,34,0.00,CLR,,0.00,WeatherDisplay:10.37,2013-01-11 04:14:00,
2013-01-10 23:16:00,45.9,19.1,30.46,ENE,72,0.0,0.0,34,0.00,CLR,,0.00,WeatherDisplay:10.37,2013-01-11 04:16:00,
2013-01-10 23:18:00,46.0,19.2,30.46,ENE,72,0.0,0.0,34,0.00,CLR,,0.00,WeatherDisplay:10.37,2013-01-11 04:18:00,
2013-01-10 23:19:00,46.1,19.2,30.46,ENE,72,0.0,0.0,34,0.00,CLR,,0.00,WeatherDisplay:10.37,2013-01-11 04:19:00,
2013-01-10 23:21:00,46.2,19.3,30.46,ENE,72,0.0,0.0,34,0.00,CLR,,0.00,WeatherDisplay:10.37,2013-01-11 04:21:00,
2013-01-10 23:24:00,46.4,19.5,30.46,ENE,72,0.0,0.0,34,0.00,CLR,,0.00,WeatherDisplay:10.37,2013-01-11 04:24:00,
2013-01-10 23:26:00,46.8,18.5,30.46,ENE,72,0.0,0.0,32,0.00,CLR,,0.00,WeatherDisplay:10.37,2013-01-11 04:26:00,
2013-01-10 23:27:00,47.0,18.6,30.46,ENE,72,0.0,0.0,32,0.00,CLR,,0.00,WeatherDisplay:10.37,2013-01-11 04:27:00,
2013-01-10 23:32:00,47.8,17.8,30.46,ENE,72,0.0,0.0,30,0.00,CLR,,0.00,WeatherDisplay:10.37,2013-01-11 04:32:00,
2013-01-10 23:34:00,48.1,18.1,30.45,ENE,72,0.0,0.0,30,0.00,CLR,,0.00,WeatherDisplay:10.37,2013-01-11 04:34:00,
2013-01-10 23:37:00,48.4,17.6,30.45,ENE,72,0.0,0.0,29,0.00,CLR,,0.00,WeatherDisplay:10.37,2013-01-11 04:37:00,
2013-01-10 23:38:00,48.4,17.6,30.45,ENE,59,0.0,1.0,29,0.00,CLR,,0.00,WeatherDisplay:10.37,2013-01-11 04:38:00,
2013-01-10 23:40:00,48.4,16.7,30.45,East,90,0.0,0.0,28,0.00,CLR,,0.00,WeatherDisplay:10.37,2013-01-11 04:40:00,
2013-01-10 23:42:00,48.4,16.7,30.45,SE,130,6.9,6.9,28,0.00,CLR,,0.00,WeatherDisplay:10.37,2013-01-11 04:42:00,
2013-01-10 23:44:00,48.4,16.7,30.45,East,93,3.0,7.0,28,0.00,CLR,,0.00,WeatherDisplay:10.37,2013-01-11 04:44:00,
2013-01-10 23:47:00,48.4,16.7,30.44,ESE,121,6.9,6.9,28,0.00,CLR,,0.00,WeatherDisplay:10.37,2013-01-11 04:47:00,
2013-01-10 23:48:00,48.5,16.8,30.44,East,100,6.9,6.9,28,0.00,CLR,,0.00,WeatherDisplay:10.37,2013-01-11 04:48:00,
2013-01-10 23:49:00,48.6,16.1,30.44,ENE,64,8.1,8.1,27,0.00,CLR,,0.00,WeatherDisplay:10.37,2013-01-11 04:49:00,
2013-01-10 23:52:00,48.5,16.8,30.44,East,79,4.6,0.0,28,0.00,CLR,,0.00,WeatherDisplay:10.37,2013-01-11 04:52:00,
2013-01-10 23:54:00,48.5,16.9,30.44,East,88,0.0,5.0,28,0.00,CLR,,0.00,WeatherDisplay:10.37,2013-01-11 04:54:00,
2013-01-10 23:56:00,48.5,17.6,30.44,ESE,103,0.0,0.0,29,0.00,CLR,,0.00,WeatherDisplay:10.37,2013-01-11 04:56:00,
2013-01-10 23:58:00,48.5,17.6,30.44,ESE,103,0.0,0.0,29,0.00,CLR,,0.00,WeatherDisplay:10.37,2013-01-11 04:58:00,
2013-01-10 23:59:00,48.4,17.6,30.44,ESE,103,0.0,0.0,29,0.00,CLR,,0.00,WeatherDisplay:10.37,2013-01-11 04:59:00,